Observation data for Fort Lancaster on 02/13/2017      Previous  Date  Next       Current Mesonet Observations  Soil Data  Daily Summary Page  Observations in Plain Language
KLA1 130600Z 03008KT 13/02 A3023 RMK A01 T01330016  RH  045%=      5-min Rain = 0
KLA1 130601Z 00007KT 13/02 A3023 RMK A01 T01330016  RH  045%=      5-min Rain = 0
KLA1 130602Z 01003KT 13/02 A3022 RMK A01 T01330016  RH  045%=      5-min Rain = 0
KLA1 130603Z 33004KT 13/02 A3023 RMK A01 T01320016  RH  045%=      5-min Rain = 0
KLA1 130604Z 02006KT 13/02 A3023 RMK A01 T01320016  RH  045%=      5-min Rain = 0
KLA1 130605Z 04006KT 13/02 A3023 RMK A01 T01320016  RH  045%=      5-min Rain = 0
KLA1 130606Z 05004KT 13/02 A3023 RMK A01 T01320017  RH  045%=      5-min Rain = 0
KLA1 130607Z 07004KT 13/02 A3023 RMK A01 T01320017  RH  045%=      5-min Rain = 0
KLA1 130608Z 02005KT 13/02 A3022 RMK A01 T01320016  RH  045%=      5-min Rain = 0
KLA1 130609Z 03004KT 13/02 A3022 RMK A01 T01320016  RH  045%=      5-min Rain = 0
KLA1 130610Z 06008KT 13/02 A3022 RMK A01 T01320015  RH  045%=      5-min Rain = 0
KLA1 130611Z 05008KT 13/02 A3022 RMK A01 T01320015  RH  045%=      5-min Rain = 0
KLA1 130612Z 04006KT 13/02 A3022 RMK A01 T01310015  RH  045%=      5-min Rain = 0
KLA1 130613Z 05004KT 13/02 A3022 RMK A01 T01310015  RH  045%=      5-min Rain = 0
KLA1 130614Z 05005KT 13/02 A3022 RMK A01 T01310015  RH  045%=      5-min Rain = 0
KLA1 130615Z 04005KT 13/02 A3022 RMK A01 T01310015  RH  045%=      5-min Rain = 0
KLA1 130616Z 03007KT 13/02 A3022 RMK A01 T01310015  RH  045%=      5-min Rain = 0
KLA1 130617Z 03008KT 13/02 A3022 RMK A01 T01310015  RH  045%=      5-min Rain = 0
KLA1 130618Z 04008KT 13/02 A3022 RMK A01 T01310015  RH  045%=      5-min Rain = 0
KLA1 130619Z 03007KT 13/02 A3022 RMK A01 T01310015  RH  045%=      5-min Rain = 0
KLA1 130620Z 05006KT 13/02 A3022 RMK A01 T01300015  RH  045%=      5-min Rain = 0
KLA1 130621Z 04007KT 13/02 A3022 RMK A01 T01300015  RH  045%=      5-min Rain = 0
KLA1 130622Z 05008KT 13/01 A3022 RMK A01 T01300014  RH  045%=      5-min Rain = 0
KLA1 130623Z 05007KT 13/01 A3022 RMK A01 T01300014  RH  045%=      5-min Rain = 0
KLA1 130624Z 05007KT 13/01 A3022 RMK A01 T01300014  RH  045%=      5-min Rain = 0
KLA1 130625Z 07005KT 13/01 A3021 RMK A01 T01300014  RH  045%=      5-min Rain = 0
KLA1 130626Z 04006KT 13/01 A3021 RMK A01 T01290014  RH  045%=      5-min Rain = 0
KLA1 130627Z 05006KT 13/01 A3021 RMK A01 T01290014  RH  045%=      5-min Rain = 0
KLA1 130628Z 05007KT 13/01 A3021 RMK A01 T01290014  RH  045%=      5-min Rain = 0
KLA1 130629Z 05005KT 13/01 A3021 RMK A01 T01290014  RH  045%=      5-min Rain = 0
KLA1 130630Z 04004KT 13/01 A3021 RMK A01 T01290014  RH  045%=      5-min Rain = 0
KLA1 130631Z 04005KT 13/01 A3021 RMK A01 T01290014  RH  045%=      5-min Rain = 0
KLA1 130632Z 06005KT 13/01 A3022 RMK A01 T01290014  RH  045%=      5-min Rain = 0
KLA1 130633Z 04005KT 13/01 A3021 RMK A01 T01290014  RH  045%=      5-min Rain = 0
KLA1 130634Z 04006KT 13/01 A3022 RMK A01 T01290013  RH  045%=      5-min Rain = 0
KLA1 130635Z 03004KT 13/01 A3022 RMK A01 T01290013  RH  045%=      5-min Rain = 0
KLA1 130636Z 04004KT 13/01 A3021 RMK A01 T01290013  RH  045%=      5-min Rain = 0
KLA1 130637Z 04005KT 13/01 A3021 RMK A01 T01280013  RH  045%=      5-min Rain = 0
KLA1 130638Z 06006KT 13/01 A3021 RMK A01 T01280013  RH  045%=      5-min Rain = 0
KLA1 130639Z 05004KT 13/01 A3021 RMK A01 T01290013  RH  045%=      5-min Rain = 0
KLA1 130640Z 04007KT 13/01 A3021 RMK A01 T01280013  RH  045%=      5-min Rain = 0
KLA1 130641Z 04005KT 13/01 A3021 RMK A01 T01280013  RH  045%=      5-min Rain = 0
KLA1 130642Z 03006KT 13/01 A3021 RMK A01 T01280013  RH  045%=      5-min Rain = 0
KLA1 130643Z 04008KT 13/01 A3021 RMK A01 T01280012  RH  045%=      5-min Rain = 0
KLA1 130644Z 04007KT 13/01 A3021 RMK A01 T01280012  RH  045%=      5-min Rain = 0
KLA1 130645Z 03008KT 13/01 A3021 RMK A01 T01280012  RH  045%=      5-min Rain = 0
KLA1 130646Z 04008KT 13/01 A3021 RMK A01 T01270012  RH  045%=      5-min Rain = 0
KLA1 130647Z 04007G12KT 13/01 A3021 RMK A01 T01280012  RH  045%=      5-min Rain = 0
KLA1 130648Z 03009KT 13/01 A3021 RMK A01 T01280012  RH  045%=      5-min Rain = 0
KLA1 130649Z 05010KT 13/01 A3021 RMK A01 T01270012  RH  045%=      5-min Rain = 0
KLA1 130650Z 05008KT 13/01 A3021 RMK A01 T01270011  RH  045%=      5-min Rain = 0
KLA1 130651Z 03008KT 13/01 A3021 RMK A01 T01270011  RH  045%=      5-min Rain = 0
KLA1 130652Z 03009KT 13/01 A3021 RMK A01 T01270011  RH  045%=      5-min Rain = 0
KLA1 130653Z 03008KT 13/01 A3021 RMK A01 T01270011  RH  045%=      5-min Rain = 0
KLA1 130654Z 03008KT 13/01 A3021 RMK A01 T01270011  RH  045%=      5-min Rain = 0
KLA1 130655Z 05007KT 13/01 A302 RMK A01 T01270011  RH  045%=      5-min Rain = 0
KLA1 130656Z 04008KT 13/01 A302 RMK A01 T01270011  RH  045%=      5-min Rain = 0
KLA1 130657Z 04004KT 13/01 A302 RMK A01 T01270011  RH  045%=      5-min Rain = 0
KLA1 130658Z 04005KT 13/01 A302 RMK A01 T01270011  RH  045%=      5-min Rain = 0
KLA1 130659Z 03008KT 13/01 A302 RMK A01 T01270011  RH  045%=      5-min Rain = 0
KLA1 130700Z 03007KT 13/01 A302 RMK A01 T01260011  RH  045%=      5-min Rain = 0
KLA1 130701Z 04007KT 13/01 A302 RMK A01 T01260010  RH  045%=      5-min Rain = 0
KLA1 130702Z 06007KT 13/01 A302 RMK A01 T01260010  RH  045%=      5-min Rain = 0
KLA1 130703Z 04005KT 13/01 A302 RMK A01 T01260011  RH  045%=      5-min Rain = 0
KLA1 130704Z 03006KT 13/01 A302 RMK A01 T01260010  RH  045%=      5-min Rain = 0
KLA1 130705Z 04006KT 13/01 A302 RMK A01 T01260011  RH  045%=      5-min Rain = 0
KLA1 130706Z 03006KT 13/01 A302 RMK A01 T01260010  RH  045%=      5-min Rain = 0
KLA1 130707Z 04004KT 13/01 A302 RMK A01 T01260011  RH  045%=      5-min Rain = 0
KLA1 130708Z 03007KT 13/01 A302 RMK A01 T01260011  RH  045%=      5-min Rain = 0
KLA1 130709Z 03008KT 13/01 A302 RMK A01 T01260010  RH  045%=      5-min Rain = 0
KLA1 130710Z 04007KT 13/01 A302 RMK A01 T01260010  RH  045%=      5-min Rain = 0
KLA1 130711Z 03008KT 13/01 A302 RMK A01 T01260010  RH  045%=      5-min Rain = 0
KLA1 130712Z 05006KT 13/01 A302 RMK A01 T01260010  RH  045%=      5-min Rain = 0
KLA1 130713Z 03006KT 13/01 A302 RMK A01 T01260010  RH  045%=      5-min Rain = 0
KLA1 130714Z 02007KT 13/01 A302 RMK A01 T01260010  RH  045%=      5-min Rain = 0
KLA1 130715Z 03009KT 13/01 A302 RMK A01 T01260010  RH  045%=      5-min Rain = 0
KLA1 130716Z 03008KT 13/01 A302 RMK A01 T01260010  RH  045%=      5-min Rain = 0
KLA1 130717Z 03009KT 13/01 A302 RMK A01 T01260010  RH  045%=      5-min Rain = 0
KLA1 130718Z 03009KT 13/01 A302 RMK A01 T01250009  RH  045%=      5-min Rain = 0
KLA1 130719Z 02009KT 13/01 A302 RMK A01 T01250009  RH  045%=      5-min Rain = 0
KLA1 130720Z 05004KT 13/01 A3021 RMK A01 T01250010  RH  045%=      5-min Rain = 0
KLA1 130721Z 03005KT 13/01 A3021 RMK A01 T01250011  RH  045%=      5-min Rain = 0
KLA1 130722Z 03007KT 13/01 A3021 RMK A01 T01250010  RH  046%=      5-min Rain = 0
KLA1 130723Z 04006KT 13/01 A302 RMK A01 T01250010  RH  045%=      5-min Rain = 0
KLA1 130724Z 05006KT 13/01 A302 RMK A01 T01250010  RH  045%=      5-min Rain = 0
KLA1 130725Z 04007KT 13/01 A302 RMK A01 T01250010  RH  045%=      5-min Rain = 0
KLA1 130726Z 06006KT 13/01 A302 RMK A01 T01250009  RH  045%=      5-min Rain = 0
KLA1 130727Z 04005KT 13/01 A302 RMK A01 T01250010  RH  045%=      5-min Rain = 0
KLA1 130728Z 03006KT 13/01 A302 RMK A01 T01250010  RH  045%=      5-min Rain = 0
KLA1 130729Z 03006KT 13/01 A302 RMK A01 T01250010  RH  045%=      5-min Rain = 0
KLA1 130730Z 03007KT 13/01 A302 RMK A01 T01250010  RH  045%=      5-min Rain = 0
KLA1 130731Z 03006KT 12/01 A302 RMK A01 T01240009  RH  045%=      5-min Rain = 0
KLA1 130732Z 05007KT 12/01 A302 RMK A01 T01240010  RH  045%=      5-min Rain = 0
KLA1 130733Z 04008KT 12/01 A302 RMK A01 T01240009  RH  045%=      5-min Rain = 0
KLA1 130734Z 03006KT 12/01 A302 RMK A01 T01240009  RH  045%=      5-min Rain = 0
KLA1 130735Z 04004KT 12/01 A302 RMK A01 T01240009  RH  045%=      5-min Rain = 0
KLA1 130736Z 04006KT 12/01 A302 RMK A01 T01240010  RH  045%=      5-min Rain = 0
KLA1 130737Z 04006KT 13/01 A302 RMK A01 T01250010  RH  045%=      5-min Rain = 0
KLA1 130738Z 05005KT 12/01 A302 RMK A01 T01240009  RH  045%=      5-min Rain = 0
KLA1 130739Z 03003KT 12/01 A302 RMK A01 T01240009  RH  045%=      5-min Rain = 0
KLA1 130740Z 04002KT 12/01 A302 RMK A01 T01240009  RH  045%=      5-min Rain = 0
KLA1 130741Z 05002KT 12/01 A302 RMK A01 T01240009  RH  045%=      5-min Rain = 0
KLA1 130742Z 05002KT 12/01 A302 RMK A01 T01240009  RH  045%=      5-min Rain = 0
KLA1 130743Z 05002KT 12/01 A302 RMK A01 T01240009  RH  045%=      5-min Rain = 0
KLA1 130744Z 03004KT 12/01 A302 RMK A01 T01240009  RH  045%=      5-min Rain = 0
KLA1 130745Z 04004KT 13/01 A302 RMK A01 T01250009  RH  045%=      5-min Rain = 0
KLA1 130746Z 06005KT 12/01 A302 RMK A01 T01240009  RH  045%=      5-min Rain = 0
KLA1 130747Z 09005KT 12/01 A302 RMK A01 T01240008  RH  045%=      5-min Rain = 0
KLA1 130748Z 06003KT 13/01 A302 RMK A01 T01250009  RH  045%=      5-min Rain = 0
KLA1 130749Z 05004KT 13/01 A302 RMK A01 T01250014  RH  047%=      5-min Rain = 0
KLA1 130750Z 02002KT 12/02 A302 RMK A01 T01240017  RH  048%=      5-min Rain = 0
KLA1 130751Z 02003KT 12/02 A302 RMK A01 T01230021  RH  050%=      5-min Rain = 0
KLA1 130752Z 03005KT 12/03 A302 RMK A01 T01220029  RH  053%=      5-min Rain = 0
KLA1 130753Z 04005KT 12/03 A302 RMK A01 T01200029  RH  054%=      5-min Rain = 0
KLA1 130754Z 04006KT 12/03 A302 RMK A01 T01180030  RH  055%=      5-min Rain = 0
KLA1 130755Z 05007KT 12/03 A302 RMK A01 T01170027  RH  054%=      5-min Rain = 0
KLA1 130756Z 05009KT 12/03 A302 RMK A01 T01170025  RH  053%=      5-min Rain = 0
KLA1 130757Z 05010KT 12/02 A302 RMK A01 T01170020  RH  052%=      5-min Rain = 0
KLA1 130758Z 06007KT 12/02 A302 RMK A01 T01180019  RH  051%=      5-min Rain = 0
KLA1 130759Z 05007KT 12/02 A302 RMK A01 T01180020  RH  051%=      5-min Rain = 0
KLA1 130800Z 05007KT 12/02 A302 RMK A01 T01180016  RH  049%=      5-min Rain = 0
KLA1 130801Z 06007KT 12/02 A302 RMK A01 T01190016  RH  049%=      5-min Rain = 0
KLA1 130802Z 04005KT 12/02 A302 RMK A01 T01200017  RH  049%=      5-min Rain = 0
KLA1 130803Z 04004KT 12/02 A302 RMK A01 T01200017  RH  050%=      5-min Rain = 0
KLA1 130804Z 05004KT 12/02 A302 RMK A01 T01200017  RH  049%=      5-min Rain = 0
KLA1 130805Z 04003KT 12/02 A302 RMK A01 T01200017  RH  049%=      5-min Rain = 0
KLA1 130806Z 05005KT 12/02 A302 RMK A01 T01190017  RH  049%=      5-min Rain = 0
KLA1 130807Z 06003KT 12/02 A302 RMK A01 T01200019  RH  050%=      5-min Rain = 0
KLA1 130808Z 07006KT 12/02 A302 RMK A01 T01200017  RH  049%=      5-min Rain = 0
KLA1 130809Z 07007KT 12/01 A302 RMK A01 T01200014  RH  048%=      5-min Rain = 0
KLA1 130810Z 06005KT 12/01 A302 RMK A01 T01210009  RH  046%=      5-min Rain = 0
KLA1 130811Z 05004KT 12/01 A302 RMK A01 T01220012  RH  047%=      5-min Rain = 0
KLA1 130812Z 06003KT 12/01 A302 RMK A01 T01220014  RH  048%=      5-min Rain = 0
KLA1 130813Z 05004KT 12/01 A302 RMK A01 T01220014  RH  048%=      5-min Rain = 0
KLA1 130814Z 04005KT 12/01 A302 RMK A01 T01220014  RH  048%=      5-min Rain = 0
KLA1 130815Z 04005KT 12/01 A302 RMK A01 T01220014  RH  048%=      5-min Rain = 0
KLA1 130816Z 03006KT 12/01 A302 RMK A01 T01220014  RH  048%=      5-min Rain = 0
KLA1 130817Z 01006KT 12/01 A302 RMK A01 T01210014  RH  048%=      5-min Rain = 0
KLA1 130818Z 02005KT 12/01 A302 RMK A01 T01210011  RH  047%=      5-min Rain = 0
KLA1 130819Z 04005KT 12/01 A302 RMK A01 T01210011  RH  047%=      5-min Rain = 0
KLA1 130820Z 06005KT 12/01 A302 RMK A01 T01210009  RH  046%=      5-min Rain = 0
KLA1 130821Z 01003KT 12/01 A302 RMK A01 T01210010  RH  046%=      5-min Rain = 0
KLA1 130822Z 02005KT 12/01 A302 RMK A01 T01210011  RH  047%=      5-min Rain = 0
KLA1 130823Z 03005KT 12/01 A302 RMK A01 T01220011  RH  047%=      5-min Rain = 0
KLA1 130824Z 04004KT 12/01 A302 RMK A01 T01210012  RH  047%=      5-min Rain = 0
KLA1 130825Z 03004KT 12/01 A302 RMK A01 T01220011  RH  047%=      5-min Rain = 0
KLA1 130826Z 04004KT 12/01 A302 RMK A01 T01220011  RH  047%=      5-min Rain = 0
KLA1 130827Z 04004KT 12/01 A302 RMK A01 T01220012  RH  047%=      5-min Rain = 0
KLA1 130828Z 05003KT 12/01 A302 RMK A01 T01210012  RH  047%=      5-min Rain = 0
KLA1 130829Z 04003KT 12/01 A302 RMK A01 T01210012  RH  047%=      5-min Rain = 0
KLA1 130830Z 03004KT 12/01 A302 RMK A01 T01220011  RH  047%=      5-min Rain = 0
KLA1 130831Z 03004KT 12/01 A302 RMK A01 T01220014  RH  048%=      5-min Rain = 0
KLA1 130832Z 04005KT 12/02 A302 RMK A01 T01210017  RH  049%=      5-min Rain = 0
KLA1 130833Z 05005KT 12/02 A302 RMK A01 T01200018  RH  050%=      5-min Rain = 0
KLA1 130834Z 04005KT 12/02 A302 RMK A01 T01190017  RH  050%=      5-min Rain = 0
KLA1 130835Z 01005KT 12/02 A302 RMK A01 T01180018  RH  050%=      5-min Rain = 0
KLA1 130836Z 05006KT 12/02 A302 RMK A01 T01180022  RH  052%=      5-min Rain = 0
KLA1 130837Z 05006KT 12/02 A302 RMK A01 T01170017  RH  051%=      5-min Rain = 0
KLA1 130838Z 03006KT 12/02 A302 RMK A01 T01170016  RH  050%=      5-min Rain = 0
KLA1 130839Z 05005KT 12/02 A302 RMK A01 T01170016  RH  050%=      5-min Rain = 0
KLA1 130840Z 36003KT 12/02 A3019 RMK A01 T01170015  RH  050%=      5-min Rain = 0
KLA1 130841Z 03003KT 12/02 A3019 RMK A01 T01170020  RH  051%=      5-min Rain = 0
KLA1 130842Z 04005KT 12/02 A3019 RMK A01 T01160023  RH  053%=      5-min Rain = 0
KLA1 130843Z 05005KT 12/02 A3019 RMK A01 T01150022  RH  053%=      5-min Rain = 0
KLA1 130844Z 03005KT 12/02 A3019 RMK A01 T01150018  RH  051%=      5-min Rain = 0
KLA1 130845Z 05005KT 12/02 A3019 RMK A01 T01150016  RH  050%=      5-min Rain = 0
KLA1 130846Z 04003KT 12/02 A3019 RMK A01 T01150018  RH  051%=      5-min Rain = 0
KLA1 130847Z 03003KT 12/02 A3019 RMK A01 T01150016  RH  051%=      5-min Rain = 0
KLA1 130848Z 01004KT 12/02 A3019 RMK A01 T01150017  RH  051%=      5-min Rain = 0
KLA1 130849Z 00005KT 12/02 A3019 RMK A01 T01160020  RH  052%=      5-min Rain = 0
KLA1 130850Z 02004KT 12/02 A3019 RMK A01 T01160018  RH  051%=      5-min Rain = 0
KLA1 130851Z 02007KT 12/02 A3019 RMK A01 T01150015  RH  050%=      5-min Rain = 0
KLA1 130852Z 01005KT 12/02 A3019 RMK A01 T01160016  RH  050%=      5-min Rain = 0
KLA1 130853Z 02003KT 12/02 A3019 RMK A01 T01160019  RH  051%=      5-min Rain = 0
KLA1 130854Z 04003KT 12/02 A3019 RMK A01 T01160019  RH  052%=      5-min Rain = 0
KLA1 130855Z 03003KT 12/02 A3019 RMK A01 T01160017  RH  050%=      5-min Rain = 0
KLA1 130856Z 03003KT 12/02 A3019 RMK A01 T01160018  RH  051%=      5-min Rain = 0
KLA1 130857Z 03005KT 12/02 A3019 RMK A01 T01160015  RH  050%=      5-min Rain = 0
KLA1 130858Z 03006KT 12/01 A3019 RMK A01 T01160014  RH  050%=      5-min Rain = 0
KLA1 130859Z 03006KT 12/01 A3019 RMK A01 T01160014  RH  049%=      5-min Rain = 0
KLA1 130900Z 03005KT 12/02 A3019 RMK A01 T01160016  RH  050%=      5-min Rain = 0
KLA1 130901Z 02006KT 12/02 A3019 RMK A01 T01160017  RH  051%=      5-min Rain = 0
KLA1 130902Z 03008KT 12/02 A3019 RMK A01 T01150016  RH  050%=      5-min Rain = 0
KLA1 130903Z 04005KT 12/02 A3019 RMK A01 T01150016  RH  051%=      5-min Rain = 0
KLA1 130904Z 05007KT 12/02 A3019 RMK A01 T01150015  RH  050%=      5-min Rain = 0
KLA1 130905Z 05005KT 12/02 A3019 RMK A01 T01150018  RH  051%=      5-min Rain = 0
KLA1 130906Z 05003KT 11/02 A3019 RMK A01 T01140018  RH  052%=      5-min Rain = 0
KLA1 130907Z 05003KT 11/02 A3019 RMK A01 T01140020  RH  052%=      5-min Rain = 0
KLA1 130908Z 03004KT 11/02 A3019 RMK A01 T01140017  RH  051%=      5-min Rain = 0
KLA1 130909Z 02003KT 11/02 A3019 RMK A01 T01140017  RH  051%=      5-min Rain = 0
KLA1 130910Z 03003KT 11/02 A3019 RMK A01 T01140018  RH  052%=      5-min Rain = 0
KLA1 130911Z 03003KT 11/02 A302 RMK A01 T01140016  RH  051%=      5-min Rain = 0
KLA1 130912Z 02003KT 11/02 A3019 RMK A01 T01140019  RH  052%=      5-min Rain = 0
KLA1 130913Z 01004KT 11/02 A3019 RMK A01 T01140021  RH  053%=      5-min Rain = 0
KLA1 130914Z 35007KT 11/02 A3019 RMK A01 T01130020  RH  053%=      5-min Rain = 0
KLA1 130915Z 35003KT 11/01 A3019 RMK A01 T01140014  RH  050%=      5-min Rain = 0
KLA1 130916Z 34004KT 11/02 A3019 RMK A01 T01140016  RH  051%=      5-min Rain = 0
KLA1 130917Z 00005KT 11/02 A3019 RMK A01 T01140018  RH  051%=      5-min Rain = 0
KLA1 130918Z 01004KT 11/02 A3019 RMK A01 T01140016  RH  051%=      5-min Rain = 0
KLA1 130919Z 01003KT 12/02 A3019 RMK A01 T01150019  RH  052%=      5-min Rain = 0
KLA1 130920Z 00003KT 12/02 A302 RMK A01 T01150021  RH  053%=      5-min Rain = 0
KLA1 130921Z 32003KT 11/02 A302 RMK A01 T01140024  RH  054%=      5-min Rain = 0
KLA1 130922Z 00006KT 11/02 A302 RMK A01 T01140022  RH  053%=      5-min Rain = 0
KLA1 130923Z 03003KT 11/01 A302 RMK A01 T01140014  RH  050%=      5-min Rain = 0
KLA1 130924Z 02003KT 11/02 A302 RMK A01 T01140017  RH  051%=      5-min Rain = 0
KLA1 130925Z 04005KT 11/02 A302 RMK A01 T01140015  RH  051%=      5-min Rain = 0
KLA1 130926Z 05004KT 11/01 A302 RMK A01 T01140013  RH  050%=      5-min Rain = 0
KLA1 130927Z 02003KT 11/01 A302 RMK A01 T01140014  RH  050%=      5-min Rain = 0
KLA1 130928Z 32003KT 11/02 A302 RMK A01 T01140015  RH  051%=      5-min Rain = 0
KLA1 130929Z 35004KT 11/02 A302 RMK A01 T01140022  RH  053%=      5-min Rain = 0
KLA1 130930Z 00006KT 11/03 A302 RMK A01 T01130025  RH  055%=      5-min Rain = 0
KLA1 130931Z 35005KT 11/02 A302 RMK A01 T01110023  RH  055%=      5-min Rain = 0
KLA1 130932Z 34004KT 11/03 A302 RMK A01 T01100025  RH  055%=      5-min Rain = 0
KLA1 130933Z 33004KT 11/03 A302 RMK A01 T01090026  RH  056%=      5-min Rain = 0
KLA1 130934Z 33005KT 11/03 A302 RMK A01 T01090026  RH  056%=      5-min Rain = 0
KLA1 130935Z 34004KT 11/03 A302 RMK A01 T01090030  RH  058%=      5-min Rain = 0
KLA1 130936Z 35004KT 11/03 A302 RMK A01 T01080027  RH  057%=      5-min Rain = 0
KLA1 130937Z 33004KT 11/03 A302 RMK A01 T01080027  RH  057%=      5-min Rain = 0
KLA1 130938Z 34003KT 11/02 A302 RMK A01 T01080024  RH  056%=      5-min Rain = 0
KLA1 130939Z 35003KT 11/03 A302 RMK A01 T01080026  RH  057%=      5-min Rain = 0
KLA1 130940Z 35003KT 11/02 A302 RMK A01 T01080024  RH  056%=      5-min Rain = 0
KLA1 130941Z 36005KT 11/03 A302 RMK A01 T01080025  RH  056%=      5-min Rain = 0
KLA1 130942Z 36004KT 11/02 A302 RMK A01 T01080023  RH  056%=      5-min Rain = 0
KLA1 130943Z 35005KT 11/03 A302 RMK A01 T01080025  RH  057%=      5-min Rain = 0
KLA1 130944Z 36006KT 11/02 A302 RMK A01 T01080023  RH  056%=      5-min Rain = 0
KLA1 130945Z 36005KT 11/02 A302 RMK A01 T01090023  RH  055%=      5-min Rain = 0
KLA1 130946Z 36007KT 11/02 A302 RMK A01 T01080019  RH  054%=      5-min Rain = 0
KLA1 130947Z 00006KT 11/02 A302 RMK A01 T01090017  RH  053%=      5-min Rain = 0
KLA1 130948Z 00006KT 11/02 A302 RMK A01 T01080017  RH  053%=      5-min Rain = 0
KLA1 130949Z 01005KT 11/02 A302 RMK A01 T01080018  RH  054%=      5-min Rain = 0
KLA1 130950Z 36006KT 11/02 A302 RMK A01 T01080017  RH  053%=      5-min Rain = 0
KLA1 130951Z 00005KT 11/02 A302 RMK A01 T01080015  RH  053%=      5-min Rain = 0
KLA1 130952Z 01004KT 11/02 A302 RMK A01 T01080015  RH  053%=      5-min Rain = 0
KLA1 130953Z 01005KT 11/02 A302 RMK A01 T01080017  RH  053%=      5-min Rain = 0
KLA1 130954Z 01006KT 11/02 A302 RMK A01 T01080016  RH  053%=      5-min Rain = 0
KLA1 130955Z 01006KT 11/02 A3019 RMK A01 T01080016  RH  053%=      5-min Rain = 0
KLA1 130956Z 36008KT 11/02 A3019 RMK A01 T01080016  RH  053%=      5-min Rain = 0
KLA1 130957Z 01005KT 11/02 A3019 RMK A01 T01080016  RH  053%=      5-min Rain = 0
KLA1 130958Z 01005KT 11/02 A3019 RMK A01 T01080020  RH  055%=      5-min Rain = 0
KLA1 130959Z 01007KT 11/02 A3019 RMK A01 T01070018  RH  054%=      5-min Rain = 0
KLA1 131000Z 00008KT 11/02 A3019 RMK A01 T01060018  RH  054%=      5-min Rain = 0
KLA1 131001Z 01006KT 11/02 A3019 RMK A01 T01060019  RH  055%=      5-min Rain = 0
KLA1 131002Z 01006KT 11/02 A3019 RMK A01 T01050020  RH  056%=      5-min Rain = 0
KLA1 131003Z 01005KT 10/02 A3019 RMK A01 T01040020  RH  056%=      5-min Rain = 0
KLA1 131004Z 00005KT 10/02 A3019 RMK A01 T01040018  RH  055%=      5-min Rain = 0
KLA1 131005Z 01006KT 10/02 A3019 RMK A01 T01040019  RH  056%=      5-min Rain = 0
KLA1 131006Z 01006KT 10/02 A3019 RMK A01 T01040019  RH  056%=      5-min Rain = 0
KLA1 131007Z 35006KT 10/02 A3019 RMK A01 T01040019  RH  056%=      5-min Rain = 0
KLA1 131008Z 35006KT 10/02 A3019 RMK A01 T01040023  RH  057%=      5-min Rain = 0
KLA1 131009Z 35007KT 10/02 A3019 RMK A01 T01030023  RH  058%=      5-min Rain = 0
KLA1 131010Z 36006KT 10/02 A3019 RMK A01 T01030023  RH  058%=      5-min Rain = 0
KLA1 131011Z 35006KT 10/02 A3019 RMK A01 T01020024  RH  059%=      5-min Rain = 0
KLA1 131012Z 35006KT 10/02 A302 RMK A01 T01010020  RH  057%=      5-min Rain = 0
KLA1 131013Z 33004KT 10/02 A302 RMK A01 T01010023  RH  058%=      5-min Rain = 0
KLA1 131014Z 32004KT 10/02 A302 RMK A01 T01010023  RH  058%=      5-min Rain = 0
KLA1 131015Z 33005KT 10/03 A302 RMK A01 T01010025  RH  059%=      5-min Rain = 0
KLA1 131016Z 33004KT 10/02 A302 RMK A01 T01010024  RH  059%=      5-min Rain = 0
KLA1 131017Z 34005KT 10/02 A302 RMK A01 T01010023  RH  058%=      5-min Rain = 0
KLA1 131018Z 33004KT 10/02 A302 RMK A01 T01010021  RH  058%=      5-min Rain = 0
KLA1 131019Z 32005KT 10/02 A3021 RMK A01 T01000024  RH  059%=      5-min Rain = 0
KLA1 131020Z 32005KT 10/02 A3021 RMK A01 T01010023  RH  058%=      5-min Rain = 0
KLA1 131021Z 33007KT 10/03 A3021 RMK A01 T01010025  RH  059%=      5-min Rain = 0
KLA1 131022Z 32007KT 10/02 A3021 RMK A01 T01000021  RH  058%=      5-min Rain = 0
KLA1 131023Z 31005KT 10/02 A3021 RMK A01 T01000020  RH  057%=      5-min Rain = 0
KLA1 131024Z 30005KT 10/02 A3021 RMK A01 T01010022  RH  058%=      5-min Rain = 0
KLA1 131025Z 32004KT 10/02 A3021 RMK A01 T01010022  RH  058%=      5-min Rain = 0
KLA1 131026Z 32002KT 10/02 A3021 RMK A01 T01010023  RH  058%=      5-min Rain = 0
KLA1 131027Z 33004KT 10/03 A3021 RMK A01 T01010025  RH  059%=      5-min Rain = 0
KLA1 131028Z 35004KT 10/02 A3021 RMK A01 T01010022  RH  058%=      5-min Rain = 0
KLA1 131029Z 35004KT 10/02 A3021 RMK A01 T01000022  RH  058%=      5-min Rain = 0
KLA1 131030Z 32003KT 10/02 A3021 RMK A01 T01010021  RH  058%=      5-min Rain = 0
KLA1 131031Z 33003KT 10/02 A3021 RMK A01 T01010023  RH  059%=      5-min Rain = 0
KLA1 131032Z 33003KT 10/02 A3021 RMK A01 T01010021  RH  058%=      5-min Rain = 0
KLA1 131033Z 35002KT 10/02 A3021 RMK A01 T01010023  RH  058%=      5-min Rain = 0
KLA1 131034Z 34004KT 10/02 A3021 RMK A01 T01010022  RH  058%=      5-min Rain = 0
KLA1 131035Z 33004KT 10/02 A3021 RMK A01 T01010021  RH  057%=      5-min Rain = 0
KLA1 131036Z 35004KT 10/02 A3021 RMK A01 T01010019  RH  057%=      5-min Rain = 0
KLA1 131037Z 34005KT 10/02 A3021 RMK A01 T01010018  RH  056%=      5-min Rain = 0
KLA1 131038Z 32003KT 10/02 A3021 RMK A01 T01020022  RH  058%=      5-min Rain = 0
KLA1 131039Z 33004KT 10/02 A3021 RMK A01 T01020024  RH  059%=      5-min Rain = 0
KLA1 131040Z 34006KT 10/03 A3021 RMK A01 T01020025  RH  059%=      5-min Rain = 0
KLA1 131041Z 33006KT 10/02 A3021 RMK A01 T01010023  RH  058%=      5-min Rain = 0
KLA1 131042Z 33004KT 10/03 A3021 RMK A01 T01020025  RH  059%=      5-min Rain = 0
KLA1 131043Z 34004KT 10/03 A3021 RMK A01 T01010026  RH  060%=      5-min Rain = 0
KLA1 131044Z 35007KT 10/02 A3021 RMK A01 T01010024  RH  059%=      5-min Rain = 0
KLA1 131045Z 34006KT 10/02 A3021 RMK A01 T01010022  RH  058%=      5-min Rain = 0
KLA1 131046Z 35006KT 10/02 A3021 RMK A01 T01010022  RH  058%=      5-min Rain = 0
KLA1 131047Z 01008KT 10/02 A3021 RMK A01 T01010021  RH  058%=      5-min Rain = 0
KLA1 131048Z 01008KT 10/03 A3021 RMK A01 T01000025  RH  060%=      5-min Rain = 0
KLA1 131049Z 35006KT 10/03 A3021 RMK A01 T00980029  RH  062%=      5-min Rain = 0
KLA1 131050Z 34005KT 10/03 A3021 RMK A01 T00970029  RH  062%=      5-min Rain = 0
KLA1 131051Z 34004KT 10/03 A3021 RMK A01 T00960029  RH  063%=      5-min Rain = 0
KLA1 131052Z 36004KT 10/03 A3021 RMK A01 T00950027  RH  062%=      5-min Rain = 0
KLA1 131053Z 00005KT 10/03 A3021 RMK A01 T00950030  RH  064%=      5-min Rain = 0
KLA1 131054Z 01008KT 10/03 A3021 RMK A01 T00950031  RH  065%=      5-min Rain = 0
KLA1 131055Z 01009KT 09/03 A302 RMK A01 T00940031  RH  065%=      5-min Rain = 0
KLA1 131056Z 02007KT 09/03 A302 RMK A01 T00930033  RH  066%=      5-min Rain = 0
KLA1 131057Z 02006KT 09/03 A302 RMK A01 T00920034  RH  067%=      5-min Rain = 0
KLA1 131058Z 04003KT 09/04 A302 RMK A01 T00910036  RH  069%=      5-min Rain = 0
KLA1 131059Z 05002KT 09/04 A302 RMK A01 T00900037  RH  069%=      5-min Rain = 0
KLA1 131100Z 05002KT 09/04 A302 RMK A01 T00890038  RH  070%=      5-min Rain = 0
KLA1 131101Z 05003KT 09/04 A302 RMK A01 T00890035  RH  069%=      5-min Rain = 0
KLA1 131102Z 01002KT 09/04 A302 RMK A01 T00890036  RH  070%=      5-min Rain = 0
KLA1 131103Z 01003KT 09/04 A302 RMK A01 T00880037  RH  070%=      5-min Rain = 0
KLA1 131104Z 01003KT 09/04 A302 RMK A01 T00880038  RH  071%=      5-min Rain = 0
KLA1 131105Z 36006KT 09/04 A302 RMK A01 T00890036  RH  070%=      5-min Rain = 0
KLA1 131106Z 02005KT 09/03 A302 RMK A01 T00880034  RH  069%=      5-min Rain = 0
KLA1 131107Z 02006KT 09/04 A302 RMK A01 T00900035  RH  069%=      5-min Rain = 0
KLA1 131108Z 01007KT 09/03 A302 RMK A01 T00900033  RH  068%=      5-min Rain = 0
KLA1 131109Z 34004KT 09/04 A302 RMK A01 T00910035  RH  068%=      5-min Rain = 0
KLA1 131110Z 35006KT 09/03 A302 RMK A01 T00910034  RH  067%=      5-min Rain = 0
KLA1 131111Z 01007KT 09/03 A302 RMK A01 T00910034  RH  067%=      5-min Rain = 0
KLA1 131112Z 02006KT 09/03 A302 RMK A01 T00920034  RH  067%=      5-min Rain = 0
KLA1 131113Z 02007KT 09/04 A302 RMK A01 T00920035  RH  068%=      5-min Rain = 0
KLA1 131114Z 02008KT 09/04 A302 RMK A01 T00920035  RH  068%=      5-min Rain = 0
KLA1 131115Z 01007KT 09/04 A302 RMK A01 T00910035  RH  068%=      5-min Rain = 0
KLA1 131116Z 02007KT 09/04 A3019 RMK A01 T00910035  RH  068%=      5-min Rain = 0
KLA1 131117Z 02007KT 09/03 A3019 RMK A01 T00910034  RH  068%=      5-min Rain = 0
KLA1 131118Z 02006KT 09/03 A3019 RMK A01 T00910032  RH  067%=      5-min Rain = 0
KLA1 131119Z 02006KT 09/03 A3019 RMK A01 T00910033  RH  067%=      5-min Rain = 0
KLA1 131120Z 02006KT 09/03 A3019 RMK A01 T00910033  RH  067%=      5-min Rain = 0
KLA1 131121Z 02005KT 09/03 A3019 RMK A01 T00910033  RH  067%=      5-min Rain = 0
KLA1 131122Z 02008KT 09/03 A3019 RMK A01 T00910032  RH  067%=      5-min Rain = 0
KLA1 131123Z 01006KT 09/03 A3018 RMK A01 T00910032  RH  067%=      5-min Rain = 0
KLA1 131124Z 02007KT 09/03 A3018 RMK A01 T00910033  RH  067%=      5-min Rain = 0
KLA1 131125Z 01007KT 09/03 A3018 RMK A01 T00910032  RH  067%=      5-min Rain = 0
KLA1 131126Z 00006KT 09/03 A3018 RMK A01 T00910032  RH  067%=      5-min Rain = 0
KLA1 131127Z 36005KT 09/03 A3019 RMK A01 T00910033  RH  067%=      5-min Rain = 0
KLA1 131128Z 35004KT 09/03 A3019 RMK A01 T00910032  RH  067%=      5-min Rain = 0
KLA1 131129Z 34004KT 09/03 A3019 RMK A01 T00910032  RH  067%=      5-min Rain = 0
KLA1 131130Z 35003KT 09/03 A3019 RMK A01 T00910031  RH  066%=      5-min Rain = 0
KLA1 131131Z 35004KT 09/03 A302 RMK A01 T00910030  RH  066%=      5-min Rain = 0
KLA1 131132Z 35004KT 09/03 A302 RMK A01 T00920029  RH  065%=      5-min Rain = 0
KLA1 131133Z 35004KT 09/03 A3019 RMK A01 T00920030  RH  065%=      5-min Rain = 0
KLA1 131134Z 35004KT 09/03 A3019 RMK A01 T00920030  RH  065%=      5-min Rain = 0
KLA1 131135Z 36004KT 09/03 A302 RMK A01 T00920030  RH  065%=      5-min Rain = 0
KLA1 131136Z 35003KT 09/03 A302 RMK A01 T00920030  RH  065%=      5-min Rain = 0
KLA1 131137Z 32003KT 09/03 A302 RMK A01 T00920032  RH  066%=      5-min Rain = 0
KLA1 131138Z 33004KT 09/03 A302 RMK A01 T00920032  RH  066%=      5-min Rain = 0
KLA1 131139Z 34005KT 09/03 A302 RMK A01 T00920031  RH  065%=      5-min Rain = 0
KLA1 131140Z 36004KT 09/03 A3019 RMK A01 T00920031  RH  065%=      5-min Rain = 0
KLA1 131141Z 00005KT 09/03 A3019 RMK A01 T00920030  RH  065%=      5-min Rain = 0
KLA1 131142Z 01007KT 09/03 A3019 RMK A01 T00920030  RH  065%=      5-min Rain = 0
KLA1 131143Z 00006KT 09/03 A3019 RMK A01 T00920030  RH  065%=      5-min Rain = 0
KLA1 131144Z 01006KT 09/03 A3019 RMK A01 T00920031  RH  066%=      5-min Rain = 0
KLA1 131145Z 01005KT 09/03 A302 RMK A01 T00920030  RH  065%=      5-min Rain = 0
KLA1 131146Z 01006KT 09/03 A302 RMK A01 T00910029  RH  065%=      5-min Rain = 0
KLA1 131147Z 01005KT 09/03 A302 RMK A01 T00910029  RH  065%=      5-min Rain = 0
KLA1 131148Z 00005KT 09/03 A302 RMK A01 T00910030  RH  065%=      5-min Rain = 0
KLA1 131149Z 35005KT 09/03 A302 RMK A01 T00910031  RH  066%=      5-min Rain = 0
KLA1 131150Z 00007KT 09/03 A302 RMK A01 T00910031  RH  066%=      5-min Rain = 0
KLA1 131151Z 36007KT 09/03 A302 RMK A01 T00900029  RH  066%=      5-min Rain = 0
KLA1 131152Z 36008KT 09/03 A3019 RMK A01 T00900030  RH  066%=      5-min Rain = 0
KLA1 131153Z 01009KT 09/03 A3019 RMK A01 T00900032  RH  067%=      5-min Rain = 0
KLA1 131154Z 02008KT 09/03 A3019 RMK A01 T00900031  RH  067%=      5-min Rain = 0
KLA1 131155Z 02006KT 09/03 A3019 RMK A01 T00890031  RH  067%=      5-min Rain = 0
KLA1 131156Z 02005KT 09/03 A3019 RMK A01 T00890031  RH  067%=      5-min Rain = 0
KLA1 131157Z 01006KT 09/03 A3019 RMK A01 T00890030  RH  067%=      5-min Rain = 0
KLA1 131158Z 01006KT 09/03 A3019 RMK A01 T00890031  RH  067%=      5-min Rain = 0
KLA1 131159Z 00007KT 09/03 A3018 RMK A01 T00890031  RH  067%=      5-min Rain = 0
KLA1 131200Z 00007KT 09/03 A3018 RMK A01 T00890031  RH  067%=      5-min Rain = 0
KLA1 131201Z 01006KT 09/03 A3018 RMK A01 T00890031  RH  067%=      5-min Rain = 0
KLA1 131202Z 01008KT 09/03 A3017 RMK A01 T00890032  RH  068%=      5-min Rain = 0
KLA1 131203Z 01008KT 09/03 A3017 RMK A01 T00890031  RH  067%=      5-min Rain = 0
KLA1 131204Z 01011KT 09/03 A3017 RMK A01 T00890031  RH  067%=      5-min Rain = 0
KLA1 131205Z 01008KT 09/03 A3017 RMK A01 T00890031  RH  067%=      5-min Rain = 0
KLA1 131206Z 01006KT 09/03 A3017 RMK A01 T00890031  RH  067%=      5-min Rain = 0
KLA1 131207Z 01008KT 09/03 A3018 RMK A01 T00880031  RH  067%=      5-min Rain = 0
KLA1 131208Z 01008KT 09/03 A3018 RMK A01 T00880030  RH  067%=      5-min Rain = 0
KLA1 131209Z 01010KT 09/03 A3018 RMK A01 T00890030  RH  067%=      5-min Rain = 0
KLA1 131210Z 01007KT 09/03 A3018 RMK A01 T00880030  RH  067%=      5-min Rain = 0
KLA1 131211Z 01006KT 09/03 A3018 RMK A01 T00890031  RH  067%=      5-min Rain = 0
KLA1 131212Z 02006KT 09/03 A3018 RMK A01 T00880031  RH  067%=      5-min Rain = 0
KLA1 131213Z 02007KT 09/03 A3018 RMK A01 T00880031  RH  067%=      5-min Rain = 0
KLA1 131214Z 02006KT 09/03 A3018 RMK A01 T00880030  RH  067%=      5-min Rain = 0
KLA1 131215Z 00006KT 09/03 A3018 RMK A01 T00880031  RH  067%=      5-min Rain = 0
KLA1 131216Z 02004KT 09/03 A3018 RMK A01 T00880031  RH  068%=      5-min Rain = 0
KLA1 131217Z 01007KT 09/03 A3018 RMK A01 T00880031  RH  068%=      5-min Rain = 0
KLA1 131218Z 36005KT 09/03 A3018 RMK A01 T00880030  RH  067%=      5-min Rain = 0
KLA1 131219Z 00006KT 09/03 A3018 RMK A01 T00880030  RH  067%=      5-min Rain = 0
KLA1 131220Z 01008KT 09/03 A3018 RMK A01 T00880029  RH  067%=      5-min Rain = 0
KLA1 131221Z 02007KT 09/03 A3018 RMK A01 T00880029  RH  066%=      5-min Rain = 0
KLA1 131222Z 01006KT 09/03 A3018 RMK A01 T00880029  RH  066%=      5-min Rain = 0
KLA1 131223Z 01006KT 09/03 A3018 RMK A01 T00880028  RH  066%=      5-min Rain = 0
KLA1 131224Z 01008KT 09/03 A3018 RMK A01 T00880029  RH  066%=      5-min Rain = 0
KLA1 131225Z 01007KT 09/03 A3018 RMK A01 T00890028  RH  066%=      5-min Rain = 0
KLA1 131226Z 00006KT 09/03 A3019 RMK A01 T00890028  RH  066%=      5-min Rain = 0
KLA1 131227Z 01007KT 09/03 A3019 RMK A01 T00880028  RH  066%=      5-min Rain = 0
KLA1 131228Z 34005KT 09/03 A3019 RMK A01 T00890029  RH  066%=      5-min Rain = 0
KLA1 131229Z 35003KT 09/03 A3019 RMK A01 T00890029  RH  066%=      5-min Rain = 0
KLA1 131230Z 34005KT 09/03 A3019 RMK A01 T00880030  RH  067%=      5-min Rain = 0
KLA1 131231Z 36007KT 09/03 A3019 RMK A01 T00890029  RH  066%=      5-min Rain = 0
KLA1 131232Z 36006KT 09/03 A3019 RMK A01 T00880028  RH  066%=      5-min Rain = 0
KLA1 131233Z 01006KT 09/03 A3019 RMK A01 T00890029  RH  066%=      5-min Rain = 0
KLA1 131234Z 03004KT 09/03 A3019 RMK A01 T00890029  RH  066%=      5-min Rain = 0
KLA1 131235Z 00003KT 09/03 A3019 RMK A01 T00880032  RH  068%=      5-min Rain = 0
KLA1 131236Z 34006KT 09/04 A3019 RMK A01 T00870035  RH  069%=      5-min Rain = 0
KLA1 131237Z 00007KT 09/04 A3019 RMK A01 T00860035  RH  070%=      5-min Rain = 0
KLA1 131238Z 02006KT 09/04 A3019 RMK A01 T00850040  RH  073%=      5-min Rain = 0
KLA1 131239Z 02006KT 08/04 A3019 RMK A01 T00830038  RH  073%=      5-min Rain = 0
KLA1 131240Z 03005KT 08/04 A3019 RMK A01 T00820038  RH  074%=      5-min Rain = 0
KLA1 131241Z 03007KT 08/04 A3018 RMK A01 T00810040  RH  075%=      5-min Rain = 0
KLA1 131242Z 01005KT 08/04 A3018 RMK A01 T00800039  RH  075%=      5-min Rain = 0
KLA1 131243Z 02003KT 08/04 A3018 RMK A01 T00790041  RH  077%=      5-min Rain = 0
KLA1 131244Z 02003KT 08/04 A3018 RMK A01 T00790041  RH  077%=      5-min Rain = 0
KLA1 131245Z 02003KT 08/04 A3018 RMK A01 T00790041  RH  077%=      5-min Rain = 0
KLA1 131246Z 03003KT 08/04 A3018 RMK A01 T00780042  RH  078%=      5-min Rain = 0
KLA1 131247Z 03003KT 08/04 A3018 RMK A01 T00780042  RH  078%=      5-min Rain = 0
KLA1 131248Z 02004KT 08/04 A3018 RMK A01 T00780041  RH  078%=      5-min Rain = 0
KLA1 131249Z 03008KT 08/04 A3019 RMK A01 T00780040  RH  077%=      5-min Rain = 0
KLA1 131250Z 01007KT 08/04 A3019 RMK A01 T00780039  RH  076%=      5-min Rain = 0
KLA1 131251Z 00006KT 08/04 A3019 RMK A01 T00780039  RH  077%=      5-min Rain = 0
KLA1 131252Z 00008KT 08/04 A3019 RMK A01 T00780039  RH  076%=      5-min Rain = 0
KLA1 131253Z 01006KT 08/04 A3018 RMK A01 T00780040  RH  077%=      5-min Rain = 0
KLA1 131254Z 01006KT 08/04 A3018 RMK A01 T00780041  RH  077%=      5-min Rain = 0
KLA1 131255Z 01005KT 08/04 A3018 RMK A01 T00780042  RH  078%=      5-min Rain = 0
KLA1 131256Z 02005KT 08/04 A3019 RMK A01 T00770042  RH  078%=      5-min Rain = 0
KLA1 131257Z 01005KT 08/04 A3019 RMK A01 T00770043  RH  079%=      5-min Rain = 0
KLA1 131258Z 01005KT 08/04 A3019 RMK A01 T00770041  RH  078%=      5-min Rain = 0
KLA1 131259Z 01006KT 08/04 A3019 RMK A01 T00770041  RH  078%=      5-min Rain = 0
KLA1 131300Z 01007KT 08/04 A3019 RMK A01 T00770040  RH  077%=      5-min Rain = 0
KLA1 131301Z 01006KT 08/04 A3018 RMK A01 T00770040  RH  077%=      5-min Rain = 0
KLA1 131302Z 01006KT 08/04 A3019 RMK A01 T00770040  RH  077%=      5-min Rain = 0
KLA1 131303Z 01004KT 08/04 A3019 RMK A01 T00770040  RH  077%=      5-min Rain = 0
KLA1 131304Z 01004KT 08/04 A3019 RMK A01 T00780042  RH  078%=      5-min Rain = 0
KLA1 131305Z 02004KT 08/04 A3019 RMK A01 T00780043  RH  078%=      5-min Rain = 0
KLA1 131306Z 35004KT 08/04 A3019 RMK A01 T00780041  RH  078%=      5-min Rain = 0
KLA1 131307Z 36003KT 08/04 A3019 RMK A01 T00780042  RH  078%=      5-min Rain = 0
KLA1 131308Z 36004KT 08/04 A3019 RMK A01 T00780042  RH  078%=      5-min Rain = 0
KLA1 131309Z 00003KT 08/04 A302 RMK A01 T00770040  RH  077%=      5-min Rain = 0
KLA1 131310Z 01004KT 08/04 A302 RMK A01 T00770039  RH  077%=      5-min Rain = 0
KLA1 131311Z 00004KT 08/04 A302 RMK A01 T00770038  RH  076%=      5-min Rain = 0
KLA1 131312Z 00003KT 08/04 A302 RMK A01 T00770038  RH  076%=      5-min Rain = 0
KLA1 131313Z 00003KT 08/04 A302 RMK A01 T00770041  RH  078%=      5-min Rain = 0
KLA1 131314Z 36004KT 08/04 A302 RMK A01 T00780041  RH  078%=      5-min Rain = 0
KLA1 131315Z 00004KT 08/04 A302 RMK A01 T00770041  RH  078%=      5-min Rain = 0
KLA1 131316Z 33004KT 08/04 A302 RMK A01 T00770043  RH  079%=      5-min Rain = 0
KLA1 131317Z 34004KT 08/04 A302 RMK A01 T00770044  RH  079%=      5-min Rain = 0
KLA1 131318Z 01003KT 08/04 A302 RMK A01 T00770042  RH  078%=      5-min Rain = 0
KLA1 131319Z 35004KT 08/04 A302 RMK A01 T00770040  RH  077%=      5-min Rain = 0
KLA1 131320Z 33004KT 08/04 A302 RMK A01 T00770038  RH  077%=      5-min Rain = 0
KLA1 131321Z 33003KT 08/04 A302 RMK A01 T00770039  RH  077%=      5-min Rain = 0
KLA1 131322Z 33003KT 08/04 A302 RMK A01 T00780040  RH  077%=      5-min Rain = 0
KLA1 131323Z 33002KT 08/04 A3021 RMK A01 T00780040  RH  077%=      5-min Rain = 0
KLA1 131324Z 35002KT 08/04 A3021 RMK A01 T00780040  RH  077%=      5-min Rain = 0
KLA1 131325Z 34002KT 08/04 A3021 RMK A01 T00780042  RH  078%=      5-min Rain = 0
KLA1 131326Z 35003KT 08/04 A302 RMK A01 T00780041  RH  077%=      5-min Rain = 0
KLA1 131327Z 36003KT 08/04 A302 RMK A01 T00780043  RH  078%=      5-min Rain = 0
KLA1 131328Z 01004KT 08/05 A302 RMK A01 T00780045  RH  080%=      5-min Rain = 0
KLA1 131329Z 02004KT 08/04 A302 RMK A01 T00770043  RH  079%=      5-min Rain = 0
KLA1 131330Z 01004KT 08/04 A302 RMK A01 T00770042  RH  078%=      5-min Rain = 0
KLA1 131331Z 00003KT 08/04 A302 RMK A01 T00760041  RH  078%=      5-min Rain = 0
KLA1 131332Z 00003KT 08/04 A302 RMK A01 T00770043  RH  079%=      5-min Rain = 0
KLA1 131333Z 36004KT 08/04 A302 RMK A01 T00760043  RH  080%=      5-min Rain = 0
KLA1 131334Z 01005KT 08/04 A302 RMK A01 T00760044  RH  080%=      5-min Rain = 0
KLA1 131335Z 35004KT 08/04 A302 RMK A01 T00760043  RH  080%=      5-min Rain = 0
KLA1 131336Z 01004KT 08/04 A302 RMK A01 T00760042  RH  079%=      5-min Rain = 0
KLA1 131337Z 00003KT 08/04 A3021 RMK A01 T00760042  RH  079%=      5-min Rain = 0
KLA1 131338Z 00005KT 08/04 A302 RMK A01 T00760042  RH  079%=      5-min Rain = 0
KLA1 131339Z 01005KT 08/04 A302 RMK A01 T00760042  RH  079%=      5-min Rain = 0
KLA1 131340Z 00004KT 08/04 A302 RMK A01 T00760042  RH  079%=      5-min Rain = 0
KLA1 131341Z 01006KT 08/04 A302 RMK A01 T00760043  RH  080%=      5-min Rain = 0
KLA1 131342Z 01007KT 08/04 A302 RMK A01 T00760040  RH  078%=      5-min Rain = 0
KLA1 131343Z 01005KT 08/04 A302 RMK A01 T00760039  RH  078%=      5-min Rain = 0
KLA1 131344Z 36005KT 08/04 A302 RMK A01 T00760039  RH  078%=      5-min Rain = 0
KLA1 131345Z 02003KT 08/04 A302 RMK A01 T00760038  RH  077%=      5-min Rain = 0
KLA1 131346Z 01005KT 08/04 A302 RMK A01 T00760040  RH  078%=      5-min Rain = 0
KLA1 131347Z 00005KT 08/04 A302 RMK A01 T00760040  RH  078%=      5-min Rain = 0
KLA1 131348Z 35005KT 08/04 A302 RMK A01 T00760041  RH  078%=      5-min Rain = 0
KLA1 131349Z 36005KT 08/04 A302 RMK A01 T00760041  RH  079%=      5-min Rain = 0
KLA1 131350Z 35006KT 08/04 A302 RMK A01 T00760041  RH  078%=      5-min Rain = 0
KLA1 131351Z 01005KT 08/04 A302 RMK A01 T00760040  RH  078%=      5-min Rain = 0
KLA1 131352Z 02005KT 08/04 A302 RMK A01 T00760040  RH  078%=      5-min Rain = 0
KLA1 131353Z 01004KT 08/04 A302 RMK A01 T00760039  RH  077%=      5-min Rain = 0
KLA1 131354Z 00006KT 08/04 A302 RMK A01 T00760040  RH  078%=      5-min Rain = 0
KLA1 131355Z 01004KT 08/04 A302 RMK A01 T00760040  RH  078%=      5-min Rain = 0
KLA1 131356Z 01004KT 08/04 A302 RMK A01 T00760040  RH  078%=      5-min Rain = 0
KLA1 131357Z 02004KT 08/04 A302 RMK A01 T00760042  RH  079%=      5-min Rain = 0
KLA1 131358Z 01007KT 08/04 A3019 RMK A01 T00750043  RH  080%=      5-min Rain = 0
KLA1 131359Z 01005KT 08/04 A3019 RMK A01 T00750041  RH  079%=      5-min Rain = 0
KLA1 131400Z 02005KT 07/04 A3019 RMK A01 T00740042  RH  080%=      5-min Rain = 0
KLA1 131401Z 02004KT 07/04 A3019 RMK A01 T00740044  RH  081%=      5-min Rain = 0
KLA1 131402Z 02004KT 07/04 A3019 RMK A01 T00740044  RH  082%=      5-min Rain = 0
KLA1 131403Z 02005KT 07/04 A3019 RMK A01 T00730043  RH  081%=      5-min Rain = 0
KLA1 131404Z 02005KT 07/04 A3019 RMK A01 T00730043  RH  081%=      5-min Rain = 0
KLA1 131405Z 02005KT 07/04 A3019 RMK A01 T00730044  RH  082%=      5-min Rain = 0
KLA1 131406Z 01004KT 07/04 A3019 RMK A01 T00720044  RH  082%=      5-min Rain = 0
KLA1 131407Z 01003KT 07/05 A3019 RMK A01 T00730045  RH  083%=      5-min Rain = 0
KLA1 131408Z 02005KT 07/05 A3019 RMK A01 T00720045  RH  083%=      5-min Rain = 0
KLA1 131409Z 01006KT 07/04 A3019 RMK A01 T00720044  RH  082%=      5-min Rain = 0
KLA1 131410Z 01005KT 07/04 A3019 RMK A01 T00720044  RH  082%=      5-min Rain = 0
KLA1 131411Z 01004KT 07/05 A3019 RMK A01 T00730045  RH  083%=      5-min Rain = 0
KLA1 131412Z 01004KT 07/04 A3019 RMK A01 T00720044  RH  082%=      5-min Rain = 0
KLA1 131413Z 01002KT 07/04 A3019 RMK A01 T00720043  RH  082%=      5-min Rain = 0
KLA1 131414Z 01004KT 07/04 A3019 RMK A01 T00720044  RH  082%=      5-min Rain = 0
KLA1 131415Z 01005KT 07/05 A3019 RMK A01 T00730045  RH  082%=      5-min Rain = 0
KLA1 131416Z 01005KT 07/04 A3019 RMK A01 T00730044  RH  082%=      5-min Rain = 0
KLA1 131417Z 01004KT 07/04 A3019 RMK A01 T00730043  RH  081%=      5-min Rain = 0
KLA1 131418Z 35006KT 07/04 A3019 RMK A01 T00730043  RH  081%=      5-min Rain = 0
KLA1 131419Z 32003KT 07/04 A302 RMK A01 T00740044  RH  081%=      5-min Rain = 0
KLA1 131420Z 33004KT 07/05 A302 RMK A01 T00740045  RH  082%=      5-min Rain = 0
KLA1 131421Z 33003KT 07/04 A302 RMK A01 T00740043  RH  080%=      5-min Rain = 0
KLA1 131422Z 32003KT 08/04 A302 RMK A01 T00750044  RH  081%=      5-min Rain = 0
KLA1 131423Z 32004KT 08/04 A302 RMK A01 T00750044  RH  081%=      5-min Rain = 0
KLA1 131424Z 33004KT 08/04 A302 RMK A01 T00750044  RH  081%=      5-min Rain = 0
KLA1 131425Z 36004KT 08/04 A302 RMK A01 T00750042  RH  079%=      5-min Rain = 0
KLA1 131426Z 35004KT 08/04 A302 RMK A01 T00750041  RH  079%=      5-min Rain = 0
KLA1 131427Z 35005KT 08/04 A302 RMK A01 T00750041  RH  079%=      5-min Rain = 0
KLA1 131428Z 34004KT 08/04 A302 RMK A01 T00750041  RH  079%=      5-min Rain = 0
KLA1 131429Z 33003KT 08/04 A302 RMK A01 T00750042  RH  079%=      5-min Rain = 0
KLA1 131430Z 34004KT 08/04 A302 RMK A01 T00760042  RH  079%=      5-min Rain = 0
KLA1 131431Z 32005KT 08/04 A302 RMK A01 T00760042  RH  079%=      5-min Rain = 0
KLA1 131432Z 31004KT 08/04 A302 RMK A01 T00750041  RH  079%=      5-min Rain = 0
KLA1 131433Z 31003KT 08/04 A302 RMK A01 T00760042  RH  079%=      5-min Rain = 0
KLA1 131434Z 31004KT 08/04 A302 RMK A01 T00760042  RH  079%=      5-min Rain = 0
KLA1 131435Z 32005KT 08/04 A302 RMK A01 T00760043  RH  080%=      5-min Rain = 0
KLA1 131436Z 32004KT 08/04 A302 RMK A01 T00760041  RH  079%=      5-min Rain = 0
KLA1 131437Z 33003KT 08/04 A302 RMK A01 T00760040  RH  078%=      5-min Rain = 0
KLA1 131438Z 35004KT 08/04 A302 RMK A01 T00760042  RH  079%=      5-min Rain = 0
KLA1 131439Z 36005KT 08/04 A302 RMK A01 T00770043  RH  079%=      5-min Rain = 0
KLA1 131440Z 35007KT 08/04 A302 RMK A01 T00770042  RH  079%=      5-min Rain = 0
KLA1 131441Z 00007KT 08/04 A302 RMK A01 T00770041  RH  078%=      5-min Rain = 0
KLA1 131442Z 35005KT 08/04 A302 RMK A01 T00760041  RH  078%=      5-min Rain = 0
KLA1 131443Z 32003KT 08/04 A302 RMK A01 T00770042  RH  078%=      5-min Rain = 0
KLA1 131444Z 33003KT 08/04 A302 RMK A01 T00770043  RH  079%=      5-min Rain = 0
KLA1 131445Z 33003KT 08/04 A302 RMK A01 T00770044  RH  080%=      5-min Rain = 0
KLA1 131446Z 33004KT 08/04 A302 RMK A01 T00760043  RH  079%=      5-min Rain = 0
KLA1 131447Z 33005KT 08/04 A302 RMK A01 T00770044  RH  080%=      5-min Rain = 0
KLA1 131448Z 34005KT 08/04 A302 RMK A01 T00760043  RH  080%=      5-min Rain = 0
KLA1 131449Z 35004KT 08/05 A302 RMK A01 T00770045  RH  080%=      5-min Rain = 0
KLA1 131450Z 01004KT 08/05 A302 RMK A01 T00760045  RH  081%=      5-min Rain = 0
KLA1 131451Z 02005KT 08/04 A302 RMK A01 T00760043  RH  080%=      5-min Rain = 0
KLA1 131452Z 02004KT 08/04 A302 RMK A01 T00770043  RH  079%=      5-min Rain = 0
KLA1 131453Z 02003KT 08/04 A302 RMK A01 T00770043  RH  079%=      5-min Rain = 0
KLA1 131454Z 01004KT 08/04 A302 RMK A01 T00770043  RH  079%=      5-min Rain = 0
KLA1 131455Z 02003KT 08/04 A302 RMK A01 T00770042  RH  079%=      5-min Rain = 0
KLA1 131456Z 01004KT 08/04 A302 RMK A01 T00770042  RH  079%=      5-min Rain = 0
KLA1 131457Z 01004KT 08/04 A302 RMK A01 T00770042  RH  078%=      5-min Rain = 0
KLA1 131458Z 01004KT 08/04 A302 RMK A01 T00770042  RH  078%=      5-min Rain = 0
KLA1 131459Z 00004KT 08/04 A302 RMK A01 T00770041  RH  078%=      5-min Rain = 0
KLA1 131500Z 36003KT 08/04 A302 RMK A01 T00770042  RH  079%=      5-min Rain = 0
KLA1 131501Z 01005KT 08/04 A302 RMK A01 T00770042  RH  078%=      5-min Rain = 0
KLA1 131502Z 01002KT 08/04 A302 RMK A01 T00780042  RH  078%=      5-min Rain = 0
KLA1 131503Z 01004KT 08/04 A302 RMK A01 T00770042  RH  078%=      5-min Rain = 0
KLA1 131504Z 00006KT 08/04 A302 RMK A01 T00780043  RH  079%=      5-min Rain = 0
KLA1 131505Z 34005KT 08/04 A302 RMK A01 T00780042  RH  078%=      5-min Rain = 0
KLA1 131506Z 00005KT 08/04 A302 RMK A01 T00780041  RH  077%=      5-min Rain = 0
KLA1 131507Z 02004KT 08/04 A302 RMK A01 T00780041  RH  078%=      5-min Rain = 0
KLA1 131508Z 01003KT 08/04 A302 RMK A01 T00780042  RH  078%=      5-min Rain = 0
KLA1 131509Z 35003KT 08/04 A302 RMK A01 T00780042  RH  078%=      5-min Rain = 0
KLA1 131510Z 35004KT 08/04 A302 RMK A01 T00780043  RH  079%=      5-min Rain = 0
KLA1 131511Z 36004KT 08/04 A302 RMK A01 T00780042  RH  078%=      5-min Rain = 0
KLA1 131512Z 35004KT 08/04 A302 RMK A01 T00780043  RH  078%=      5-min Rain = 0
KLA1 131513Z 36004KT 08/04 A302 RMK A01 T00780042  RH  078%=      5-min Rain = 0
KLA1 131514Z 00005KT 08/04 A302 RMK A01 T00780042  RH  078%=      5-min Rain = 0
KLA1 131515Z 35005KT 08/04 A302 RMK A01 T00780042  RH  078%=      5-min Rain = 0
KLA1 131516Z 35006KT 08/04 A302 RMK A01 T00780041  RH  078%=      5-min Rain = 0
KLA1 131517Z 35004KT 08/04 A302 RMK A01 T00780042  RH  078%=      5-min Rain = 0
KLA1 131518Z 35005KT 08/04 A302 RMK A01 T00780044  RH  079%=      5-min Rain = 0
KLA1 131519Z 35007KT 08/04 A302 RMK A01 T00780041  RH  078%=      5-min Rain = 0
KLA1 131520Z 35008KT 08/04 A302 RMK A01 T00780040  RH  077%=      5-min Rain = 0
KLA1 131521Z 00007KT 08/04 A302 RMK A01 T00770041  RH  078%=      5-min Rain = 0
KLA1 131522Z 00007KT 08/04 A302 RMK A01 T00780041  RH  078%=      5-min Rain = 0
KLA1 131523Z 35005KT 08/04 A302 RMK A01 T00770040  RH  077%=      5-min Rain = 0
KLA1 131524Z 34004KT 08/04 A302 RMK A01 T00780042  RH  078%=      5-min Rain = 0
KLA1 131525Z 35003KT 08/04 A302 RMK A01 T00770042  RH  078%=      5-min Rain = 0
KLA1 131526Z 35005KT 08/04 A302 RMK A01 T00780042  RH  078%=      5-min Rain = 0
KLA1 131527Z 34007KT 08/04 A302 RMK A01 T00770041  RH  078%=      5-min Rain = 0
KLA1 131528Z 33006KT 08/04 A302 RMK A01 T00760042  RH  079%=      5-min Rain = 0
KLA1 131529Z 34006KT 08/04 A302 RMK A01 T00760043  RH  080%=      5-min Rain = 0
KLA1 131530Z 34007KT 08/04 A302 RMK A01 T00760044  RH  080%=      5-min Rain = 0
KLA1 131531Z 35007KT 08/04 A302 RMK A01 T00760042  RH  079%=      5-min Rain = 0
KLA1 131532Z 35005KT 08/04 A302 RMK A01 T00760043  RH  080%=      5-min Rain = 0
KLA1 131533Z 35006KT 08/04 A302 RMK A01 T00760043  RH  080%=      5-min Rain = 0
KLA1 131534Z 01005KT 08/04 A302 RMK A01 T00760043  RH  080%=      5-min Rain = 0
KLA1 131535Z 02006KT 08/04 A302 RMK A01 T00760043  RH  080%=      5-min Rain = 0
KLA1 131536Z 01003KT 08/04 A302 RMK A01 T00750041  RH  079%=      5-min Rain = 0
KLA1 131537Z 01006KT 08/04 A302 RMK A01 T00750041  RH  079%=      5-min Rain = 0
KLA1 131538Z 00006KT 08/04 A3019 RMK A01 T00750042  RH  079%=      5-min Rain = 0
KLA1 131539Z 01007KT 08/04 A3019 RMK A01 T00750042  RH  079%=      5-min Rain = 0
KLA1 131540Z 01006KT 08/04 A3019 RMK A01 T00750041  RH  079%=      5-min Rain = 0
KLA1 131541Z 04003KT 08/04 A3019 RMK A01 T00750041  RH  079%=      5-min Rain = 0
KLA1 131542Z 03007KT 08/04 A3019 RMK A01 T00750042  RH  079%=      5-min Rain = 0
KLA1 131543Z 03005KT 08/04 A3019 RMK A01 T00750042  RH  080%=      5-min Rain = 0
KLA1 131544Z 02006KT 08/04 A3019 RMK A01 T00750043  RH  080%=      5-min Rain = 0
KLA1 131545Z 01006KT 08/04 A3019 RMK A01 T00750044  RH  081%=      5-min Rain = 0
KLA1 131546Z 00009KT 08/05 A3019 RMK A01 T00750045  RH  081%=      5-min Rain = 0
KLA1 131547Z 01005KT 08/04 A3019 RMK A01 T00750044  RH  081%=      5-min Rain = 0
KLA1 131548Z 00006KT 08/05 A3019 RMK A01 T00750046  RH  082%=      5-min Rain = 0
KLA1 131549Z 01008KT 08/05 A3019 RMK A01 T00750047  RH  083%=      5-min Rain = 0
KLA1 131550Z 00009KT 08/05 A3019 RMK A01 T00750046  RH  082%=      5-min Rain = 0
KLA1 131551Z 00008KT 08/05 A3019 RMK A01 T00750045  RH  081%=      5-min Rain = 0
KLA1 131552Z 00008KT 08/05 A3019 RMK A01 T00750046  RH  082%=      5-min Rain = 0
KLA1 131553Z 35008KT 08/05 A3018 RMK A01 T00750045  RH  082%=      5-min Rain = 0
KLA1 131554Z 35007KT 08/04 A3018 RMK A01 T00750044  RH  081%=      5-min Rain = 0
KLA1 131555Z 36009KT 08/05 A3018 RMK A01 T00750045  RH  081%=      5-min Rain = 0
KLA1 131556Z 35011KT 08/05 A3018 RMK A01 T00760045  RH  081%=      5-min Rain = 0
KLA1 131557Z 35009KT 08/04 A3018 RMK A01 T00760044  RH  080%=      5-min Rain = 0
KLA1 131558Z 35007KT 08/04 A3019 RMK A01 T00760043  RH  080%=      5-min Rain = 0
KLA1 131559Z 35008KT 08/04 A3019 RMK A01 T00770044  RH  080%=      5-min Rain = 0
KLA1 131600Z 00009KT 08/04 A3019 RMK A01 T00770044  RH  080%=      5-min Rain = 0
KLA1 131601Z 35008KT 08/04 A3019 RMK A01 T00770044  RH  079%=      5-min Rain = 0
KLA1 131602Z 34008KT 08/04 A3019 RMK A01 T00770043  RH  079%=      5-min Rain = 0
KLA1 131603Z 34008KT 08/04 A3019 RMK A01 T00770043  RH  079%=      5-min Rain = 0
KLA1 131604Z 35009KT 08/04 A3019 RMK A01 T00770044  RH  080%=      5-min Rain = 0
KLA1 131605Z 36010KT 08/04 A3019 RMK A01 T00770042  RH  079%=      5-min Rain = 0
KLA1 131606Z 01008KT 08/04 A3019 RMK A01 T00760041  RH  079%=      5-min Rain = 0
KLA1 131607Z 36007KT 08/04 A3019 RMK A01 T00770044  RH  080%=      5-min Rain = 0
KLA1 131608Z 00007KT 08/04 A3019 RMK A01 T00770044  RH  080%=      5-min Rain = 0
KLA1 131609Z 35006KT 08/04 A3019 RMK A01 T00770044  RH  079%=      5-min Rain = 0
KLA1 131610Z 35005KT 08/04 A3019 RMK A01 T00770044  RH  080%=      5-min Rain = 0
KLA1 131611Z 36008KT 08/04 A3019 RMK A01 T00770043  RH  079%=      5-min Rain = 0
KLA1 131612Z 35006KT 08/04 A302 RMK A01 T00770042  RH  078%=      5-min Rain = 0
KLA1 131613Z 35006KT 08/04 A302 RMK A01 T00780041  RH  078%=      5-min Rain = 0
KLA1 131614Z 34006KT 08/04 A3019 RMK A01 T00770042  RH  078%=      5-min Rain = 0
KLA1 131615Z 36007KT 08/04 A3019 RMK A01 T00770042  RH  078%=      5-min Rain = 0
KLA1 131616Z 36007KT 08/04 A3019 RMK A01 T00770042  RH  078%=      5-min Rain = 0
KLA1 131617Z 36006KT 08/04 A3019 RMK A01 T00780042  RH  078%=      5-min Rain = 0
KLA1 131618Z 36004KT 08/04 A3019 RMK A01 T00770042  RH  078%=      5-min Rain = 0
KLA1 131619Z 35005KT 08/04 A3019 RMK A01 T00780044  RH  079%=      5-min Rain = 0
KLA1 131620Z 35004KT 08/04 A3019 RMK A01 T00780043  RH  079%=      5-min Rain = 0
KLA1 131621Z 36006KT 08/04 A3019 RMK A01 T00780044  RH  079%=      5-min Rain = 0
KLA1 131622Z 36005KT 08/04 A3019 RMK A01 T00780043  RH  079%=      5-min Rain = 0
KLA1 131623Z 36005KT 08/04 A3019 RMK A01 T00780043  RH  079%=      5-min Rain = 0
KLA1 131624Z 00007KT 08/04 A3019 RMK A01 T00780044  RH  079%=      5-min Rain = 0
KLA1 131625Z 36006KT 08/04 A3018 RMK A01 T00780044  RH  079%=      5-min Rain = 0
KLA1 131626Z 00007KT 08/04 A3018 RMK A01 T00780044  RH  079%=      5-min Rain = 0
KLA1 131627Z 01006KT 08/04 A3018 RMK A01 T00780044  RH  079%=      5-min Rain = 0
KLA1 131628Z 00007KT 08/04 A3018 RMK A01 T00780044  RH  079%=      5-min Rain = 0
KLA1 131629Z 36007KT 08/04 A3018 RMK A01 T00780044  RH  079%=      5-min Rain = 0
KLA1 131630Z 35008KT 08/04 A3018 RMK A01 T00780043  RH  078%=      5-min Rain = 0
KLA1 131631Z 36006KT 08/04 A3018 RMK A01 T00790043  RH  078%=      5-min Rain = 0
KLA1 131632Z 36005KT 08/04 A3018 RMK A01 T00790043  RH  078%=      5-min Rain = 0
KLA1 131633Z 35008KT 08/04 A3018 RMK A01 T00800043  RH  078%=      5-min Rain = 0
KLA1 131634Z 00005KT 08/04 A3018 RMK A01 T00800042  RH  077%=      5-min Rain = 0
KLA1 131635Z 01007KT 08/04 A3018 RMK A01 T00800041  RH  076%=      5-min Rain = 0
KLA1 131636Z 01007KT 08/04 A3018 RMK A01 T00810040  RH  075%=      5-min Rain = 0
KLA1 131637Z 36007KT 08/04 A3018 RMK A01 T00810038  RH  074%=      5-min Rain = 0
KLA1 131638Z 35004KT 08/04 A3018 RMK A01 T00810038  RH  074%=      5-min Rain = 0
KLA1 131639Z 35007KT 08/04 A3018 RMK A01 T00800038  RH  075%=      5-min Rain = 0
KLA1 131640Z 35009KT 08/04 A3018 RMK A01 T00810036  RH  074%=      5-min Rain = 0
KLA1 131641Z 01006KT 08/04 A3018 RMK A01 T00810037  RH  074%=      5-min Rain = 0
KLA1 131642Z 35007KT 08/04 A3018 RMK A01 T00800037  RH  074%=      5-min Rain = 0
KLA1 131643Z 33007KT 08/04 A3018 RMK A01 T00800038  RH  074%=      5-min Rain = 0
KLA1 131644Z 35008KT 08/04 A3018 RMK A01 T00800037  RH  074%=      5-min Rain = 0
KLA1 131645Z 35005KT 08/04 A3017 RMK A01 T00800037  RH  074%=      5-min Rain = 0
KLA1 131646Z 35005KT 08/04 A3017 RMK A01 T00800038  RH  075%=      5-min Rain = 0
KLA1 131647Z 35005KT 08/04 A3017 RMK A01 T00810039  RH  075%=      5-min Rain = 0
KLA1 131648Z 33003KT 08/04 A3017 RMK A01 T00810039  RH  075%=      5-min Rain = 0
KLA1 131649Z 35003KT 08/04 A3017 RMK A01 T00810040  RH  075%=      5-min Rain = 0
KLA1 131650Z 01006KT 08/04 A3017 RMK A01 T00820040  RH  075%=      5-min Rain = 0
KLA1 131651Z 00010KT 08/04 A3017 RMK A01 T00820039  RH  074%=      5-min Rain = 0
KLA1 131652Z 35008KT 08/04 A3017 RMK A01 T00820038  RH  074%=      5-min Rain = 0
KLA1 131653Z 35006KT 08/04 A3017 RMK A01 T00810038  RH  074%=      5-min Rain = 0
KLA1 131654Z 34004KT 08/04 A3017 RMK A01 T00810038  RH  074%=      5-min Rain = 0
KLA1 131655Z 01004KT 08/04 A3017 RMK A01 T00810039  RH  075%=      5-min Rain = 0
KLA1 131656Z 00005KT 08/04 A3017 RMK A01 T00810041  RH  076%=      5-min Rain = 0
KLA1 131657Z 35004KT 08/04 A3017 RMK A01 T00820042  RH  076%=      5-min Rain = 0
KLA1 131658Z 00003KT 08/04 A3017 RMK A01 T00820042  RH  076%=      5-min Rain = 0
KLA1 131659Z 35007KT 08/04 A3017 RMK A01 T00830041  RH  075%=      5-min Rain = 0
KLA1 131700Z 34004KT 08/04 A3017 RMK A01 T00830039  RH  074%=      5-min Rain = 0
KLA1 131701Z 00004KT 08/04 A3017 RMK A01 T00820042  RH  076%=      5-min Rain = 0
KLA1 131702Z 35006KT 08/04 A3017 RMK A01 T00820042  RH  076%=      5-min Rain = 0
KLA1 131703Z 36009KT 08/04 A3017 RMK A01 T00820040  RH  075%=      5-min Rain = 0
KLA1 131704Z 36008KT 08/04 A3017 RMK A01 T00820039  RH  074%=      5-min Rain = 0
KLA1 131705Z 00009KT 08/04 A3017 RMK A01 T00820039  RH  075%=      5-min Rain = 0
KLA1 131706Z 35007KT 08/04 A3017 RMK A01 T00820039  RH  075%=      5-min Rain = 0
KLA1 131707Z 33006KT 08/04 A3017 RMK A01 T00820039  RH  075%=      5-min Rain = 0
KLA1 131708Z 35007KT 08/04 A3017 RMK A01 T00810040  RH  075%=      5-min Rain = 0
KLA1 131709Z 33007KT 08/04 A3017 RMK A01 T00820041  RH  075%=      5-min Rain = 0
KLA1 131710Z 33009KT 08/04 A3017 RMK A01 T00820040  RH  075%=      5-min Rain = 0
KLA1 131711Z 32008KT 08/04 A3017 RMK A01 T00820039  RH  075%=      5-min Rain = 0
KLA1 131712Z 31011KT 08/04 A3017 RMK A01 T00810040  RH  075%=      5-min Rain = 0
KLA1 131713Z 33008KT 08/04 A3017 RMK A01 T00810039  RH  075%=      5-min Rain = 0
KLA1 131714Z 33007KT 08/04 A3017 RMK A01 T00810040  RH  076%=      5-min Rain = 0
KLA1 131715Z 34007KT 08/04 A3017 RMK A01 T00810039  RH  075%=      5-min Rain = 0
KLA1 131716Z 35009KT 08/04 A3017 RMK A01 T00810040  RH  075%=      5-min Rain = 0
KLA1 131717Z 36006KT 08/04 A3017 RMK A01 T00810039  RH  075%=      5-min Rain = 0
KLA1 131718Z 00006KT 08/04 A3016 RMK A01 T00810039  RH  075%=      5-min Rain = 0
KLA1 131719Z 36008KT 08/04 A3016 RMK A01 T00810040  RH  075%=      5-min Rain = 0
KLA1 131720Z 36009KT 08/04 A3016 RMK A01 T00810039  RH  075%=      5-min Rain = 0
KLA1 131721Z 35009KT 08/04 A3016 RMK A01 T00810038  RH  074%=      5-min Rain = 0
KLA1 131722Z 35006KT 08/04 A3016 RMK A01 T00810038  RH  075%=      5-min Rain = 0
KLA1 131723Z 34008KT 08/04 A3016 RMK A01 T00810038  RH  075%=      5-min Rain = 0
KLA1 131724Z 34009KT 08/04 A3015 RMK A01 T00800038  RH  075%=      5-min Rain = 0
KLA1 131725Z 34009KT 08/04 A3015 RMK A01 T00800038  RH  075%=      5-min Rain = 0
KLA1 131726Z 34009KT 08/04 A3015 RMK A01 T00800038  RH  075%=      5-min Rain = 0
KLA1 131727Z 34010KT 08/04 A3015 RMK A01 T00800039  RH  075%=      5-min Rain = 0
KLA1 131728Z 35008KT 08/04 A3015 RMK A01 T00800038  RH  075%=      5-min Rain = 0
KLA1 131729Z 33009KT 08/04 A3015 RMK A01 T00800039  RH  075%=      5-min Rain = 0
KLA1 131730Z 34010KT 08/04 A3015 RMK A01 T00800039  RH  075%=      5-min Rain = 0
KLA1 131731Z 34011G16KT 08/04 A3015 RMK A01 T00800039  RH  075%=      5-min Rain = 0
KLA1 131732Z 35011KT 08/04 A3015 RMK A01 T00800038  RH  075%=      5-min Rain = 0
KLA1 131733Z 35009KT 08/04 A3015 RMK A01 T00790039  RH  076%=      5-min Rain = 0
KLA1 131734Z 34007KT 08/04 A3014 RMK A01 T00790040  RH  077%=      5-min Rain = 0
KLA1 131735Z 34006G12KT 08/04 A3014 RMK A01 T00790042  RH  077%=      5-min Rain = 0
KLA1 131736Z 34008KT 08/04 A3014 RMK A01 T00790040  RH  077%=      5-min Rain = 0
KLA1 131737Z 34008KT 08/04 A3014 RMK A01 T00790041  RH  077%=      5-min Rain = 0
KLA1 131738Z 34010KT 08/04 A3014 RMK A01 T00790040  RH  077%=      5-min Rain = 0
KLA1 131739Z 35009KT 08/04 A3014 RMK A01 T00780039  RH  076%=      5-min Rain = 0
KLA1 131740Z 00008KT 08/04 A3014 RMK A01 T00780039  RH  076%=      5-min Rain = 0
KLA1 131741Z 00009KT 08/04 A3014 RMK A01 T00780041  RH  077%=      5-min Rain = 0
KLA1 131742Z 36008KT 08/04 A3014 RMK A01 T00780040  RH  077%=      5-min Rain = 0
KLA1 131743Z 01008KT 08/04 A3014 RMK A01 T00780040  RH  077%=      5-min Rain = 0
KLA1 131744Z 35009KT 08/04 A3014 RMK A01 T00780040  RH  077%=      5-min Rain = 0
KLA1 131745Z 35007KT 08/04 A3014 RMK A01 T00780039  RH  076%=      5-min Rain = 0
KLA1 131746Z 36007KT 08/04 A3014 RMK A01 T00780039  RH  076%=      5-min Rain = 0
KLA1 131747Z 34007KT 08/04 A3014 RMK A01 T00780038  RH  076%=      5-min Rain = 0
KLA1 131748Z 35009KT 08/04 A3014 RMK A01 T00780038  RH  076%=      5-min Rain = 0
KLA1 131749Z 00008KT 08/04 A3014 RMK A01 T00770037  RH  076%=      5-min Rain = 0
KLA1 131750Z 00007KT 08/04 A3014 RMK A01 T00770037  RH  076%=      5-min Rain = 0
KLA1 131751Z 00010KT 08/04 A3014 RMK A01 T00770036  RH  075%=      5-min Rain = 0
KLA1 131752Z 00007KT 08/04 A3014 RMK A01 T00770036  RH  075%=      5-min Rain = 0
KLA1 131753Z 01009KT 08/04 A3014 RMK A01 T00770036  RH  075%=      5-min Rain = 0
KLA1 131754Z 35009KT 08/04 A3014 RMK A01 T00770036  RH  075%=      5-min Rain = 0
KLA1 131755Z 36008KT 08/04 A3014 RMK A01 T00770036  RH  075%=      5-min Rain = 0
KLA1 131756Z 36006KT 08/04 A3014 RMK A01 T00770036  RH  075%=      5-min Rain = 0
KLA1 131757Z 36006KT 08/04 A3014 RMK A01 T00770036  RH  075%=      5-min Rain = 0
KLA1 131758Z 35007KT 08/04 A3015 RMK A01 T00770036  RH  075%=      5-min Rain = 0
KLA1 131759Z 35007KT 08/04 A3015 RMK A01 T00770036  RH  075%=      5-min Rain = 0
KLA1 131800Z 36007KT 08/04 A3015 RMK A01 T00770036  RH  075%=      5-min Rain = 0
KLA1 131801Z 35007KT 08/04 A3015 RMK A01 T00770036  RH  075%=      5-min Rain = 0
KLA1 131802Z 35006KT 08/04 A3014 RMK A01 T00770036  RH  075%=      5-min Rain = 0
KLA1 131803Z 32007KT 08/04 A3014 RMK A01 T00770036  RH  076%=      5-min Rain = 0
KLA1 131804Z 34006KT 08/04 A3014 RMK A01 T00770036  RH  076%=      5-min Rain = 0
KLA1 131805Z 00006KT 08/04 A3014 RMK A01 T00760037  RH  076%=      5-min Rain = 0
KLA1 131806Z 01008KT 08/04 A3014 RMK A01 T00760036  RH  076%=      5-min Rain = 0
KLA1 131807Z 00009KT 08/04 A3014 RMK A01 T00760036  RH  076%=      5-min Rain = 0
KLA1 131808Z 36008KT 08/04 A3015 RMK A01 T00760035  RH  075%=      5-min Rain = 0
KLA1 131809Z 36009KT 08/04 A3015 RMK A01 T00760035  RH  076%=      5-min Rain = 0
KLA1 131810Z 33006KT 08/04 A3015 RMK A01 T00760035  RH  075%=      5-min Rain = 0
KLA1 131811Z 32007KT 08/04 A3015 RMK A01 T00760035  RH  075%=      5-min Rain = 0
KLA1 131812Z 34007KT 08/04 A3015 RMK A01 T00760036  RH  076%=      5-min Rain = 0
KLA1 131813Z 33005KT 08/04 A3015 RMK A01 T00760035  RH  075%=      5-min Rain = 0
KLA1 131814Z 31006KT 08/04 A3016 RMK A01 T00760035  RH  075%=      5-min Rain = 0
KLA1 131815Z 31006KT 08/03 A3016 RMK A01 T00760034  RH  075%=      5-min Rain = 0
KLA1 131816Z 31007KT 08/04 A3016 RMK A01 T00760035  RH  075%=      5-min Rain = 0
KLA1 131817Z 32008KT 08/03 A3016 RMK A01 T00760034  RH  075%=      5-min Rain = 0
KLA1 131818Z 34007KT 08/04 A3015 RMK A01 T00760035  RH  075%=      5-min Rain = 0
KLA1 131819Z 35008KT 08/04 A3015 RMK A01 T00760036  RH  076%=      5-min Rain = 0
KLA1 131820Z 36009KT 08/04 A3015 RMK A01 T00750039  RH  078%=      5-min Rain = 0
KLA1 131821Z 36009KT 07/04 A3014 RMK A01 T00730041  RH  080%=      5-min Rain = 0
KLA1 131822Z 36007KT 07/04 A3014 RMK A01 T00720040  RH  080%=      5-min Rain = 0.02
KLA1 131823Z 35007KT 07/04 A3014 RMK A01 T00700041  RH  081%=      5-min Rain = 0
KLA1 131824Z 35004KT 07/04 A3014 RMK A01 T00700042  RH  083%=      5-min Rain = 0
KLA1 131825Z 35006KT 07/05 A3014 RMK A01 T00700045  RH  084%=      5-min Rain = 0.01
KLA1 131826Z 35007KT 07/05 A3014 RMK A01 T00690047  RH  086%=      5-min Rain = 0
KLA1 131827Z 00009KT 07/05 A3013 RMK A01 T00690047  RH  086%=      5-min Rain = 0
KLA1 131828Z 36008KT 07/05 A3013 RMK A01 T00690047  RH  086%=      5-min Rain = 0
KLA1 131829Z 35008KT 07/05 A3013 RMK A01 T00690047  RH  086%=      5-min Rain = 0.01
KLA1 131830Z 35008KT 07/05 A3013 RMK A01 T00690048  RH  087%=      5-min Rain = 0
KLA1 131831Z 00009KT 07/05 A3013 RMK A01 T00690049  RH  087%=      5-min Rain = 0
KLA1 131832Z 35008KT 07/05 A3013 RMK A01 T00690048  RH  087%=      5-min Rain = 0
KLA1 131833Z 35007KT 07/05 A3013 RMK A01 T00700050  RH  087%=      5-min Rain = 0
KLA1 131834Z 01008KT 07/05 A3013 RMK A01 T00710051  RH  087%=      5-min Rain = 0
KLA1 131835Z 00005KT 07/05 A3013 RMK A01 T00710051  RH  087%=      5-min Rain = 0
KLA1 131836Z 35005KT 07/05 A3013 RMK A01 T00720052  RH  087%=      5-min Rain = 0
KLA1 131837Z 35005KT 07/05 A3013 RMK A01 T00720054  RH  088%=      5-min Rain = 0
KLA1 131838Z 35005KT 07/06 A3013 RMK A01 T00730056  RH  089%=      5-min Rain = 0
KLA1 131839Z 35004KT 07/06 A3013 RMK A01 T00740055  RH  088%=      5-min Rain = 0
KLA1 131840Z 34006KT 07/05 A3013 RMK A01 T00730054  RH  088%=      5-min Rain = 0
KLA1 131841Z 34006KT 07/05 A3013 RMK A01 T00730054  RH  087%=      5-min Rain = 0
KLA1 131842Z 35006KT 07/06 A3013 RMK A01 T00740056  RH  088%=      5-min Rain = 0
KLA1 131843Z 35006KT 07/05 A3013 RMK A01 T00730053  RH  087%=      5-min Rain = 0
KLA1 131844Z 34007KT 07/05 A3013 RMK A01 T00730052  RH  087%=      5-min Rain = 0
KLA1 131845Z 32006KT 07/05 A3013 RMK A01 T00730052  RH  086%=      5-min Rain = 0
KLA1 131846Z 34006KT 07/05 A3013 RMK A01 T00730053  RH  087%=      5-min Rain = 0
KLA1 131847Z 34005KT 07/05 A3013 RMK A01 T00730053  RH  087%=      5-min Rain = 0
KLA1 131848Z 33006KT 07/05 A3013 RMK A01 T00730053  RH  087%=      5-min Rain = 0
KLA1 131849Z 32006KT 07/05 A3013 RMK A01 T00730052  RH  086%=      5-min Rain = 0
KLA1 131850Z 33005KT 07/06 A3013 RMK A01 T00730055  RH  088%=      5-min Rain = 0
KLA1 131851Z 31006KT 07/06 A3013 RMK A01 T00740055  RH  088%=      5-min Rain = 0
KLA1 131852Z 35005KT 07/05 A3013 RMK A01 T00730054  RH  088%=      5-min Rain = 0
KLA1 131853Z 01006KT 07/06 A3014 RMK A01 T00730055  RH  088%=      5-min Rain = 0
KLA1 131854Z 35004KT 07/05 A3013 RMK A01 T00730053  RH  087%=      5-min Rain = 0
KLA1 131855Z 35006KT 07/05 A3013 RMK A01 T00730053  RH  087%=      5-min Rain = 0
KLA1 131856Z 01006KT 07/05 A3013 RMK A01 T00720051  RH  087%=      5-min Rain = 0
KLA1 131857Z 35007KT 07/05 A3013 RMK A01 T00720051  RH  086%=      5-min Rain = 0
KLA1 131858Z 35008KT 07/05 A3013 RMK A01 T00710049  RH  086%=      5-min Rain = 0
KLA1 131859Z 36007KT 07/05 A3013 RMK A01 T00710048  RH  085%=      5-min Rain = 0
KLA1 131900Z 34006KT 07/05 A3013 RMK A01 T00700047  RH  085%=      5-min Rain = 0
KLA1 131901Z 35007KT 07/05 A3013 RMK A01 T00710049  RH  086%=      5-min Rain = 0
KLA1 131902Z 35009KT 07/05 A3012 RMK A01 T00700047  RH  085%=      5-min Rain = 0
KLA1 131903Z 34008KT 07/05 A3012 RMK A01 T00700047  RH  085%=      5-min Rain = 0
KLA1 131904Z 34008KT 07/05 A3012 RMK A01 T00700048  RH  086%=      5-min Rain = 0
KLA1 131905Z 35005KT 07/05 A3011 RMK A01 T00700049  RH  086%=      5-min Rain = 0
KLA1 131906Z 01003KT 07/05 A3011 RMK A01 T00710052  RH  088%=      5-min Rain = 0
KLA1 131907Z 36004KT 07/05 A3011 RMK A01 T00710053  RH  088%=      5-min Rain = 0
KLA1 131908Z 35005KT 07/05 A3011 RMK A01 T00720054  RH  088%=      5-min Rain = 0
KLA1 131909Z 01007KT 07/05 A3011 RMK A01 T00720054  RH  088%=      5-min Rain = 0
KLA1 131910Z 00006KT 07/05 A3011 RMK A01 T00720050  RH  086%=      5-min Rain = 0
KLA1 131911Z 01008KT 07/05 A3011 RMK A01 T00710050  RH  086%=      5-min Rain = 0
KLA1 131912Z 36007KT 07/05 A3011 RMK A01 T00710049  RH  086%=      5-min Rain = 0
KLA1 131913Z 35006KT 07/05 A3011 RMK A01 T00700049  RH  086%=      5-min Rain = 0
KLA1 131914Z 35005KT 07/05 A3011 RMK A01 T00710051  RH  087%=      5-min Rain = 0
KLA1 131915Z 35008KT 07/05 A3011 RMK A01 T00710052  RH  088%=      5-min Rain = 0
KLA1 131916Z 35008KT 07/05 A3011 RMK A01 T00710051  RH  087%=      5-min Rain = 0
KLA1 131917Z 35009KT 07/05 A3011 RMK A01 T00700051  RH  087%=      5-min Rain = 0
KLA1 131918Z 35009KT 07/05 A3011 RMK A01 T00690048  RH  086%=      5-min Rain = 0
KLA1 131919Z 34008KT 07/05 A3011 RMK A01 T00690049  RH  087%=      5-min Rain = 0
KLA1 131920Z 35007KT 07/05 A3011 RMK A01 T00690049  RH  087%=      5-min Rain = 0
KLA1 131921Z 34007KT 07/05 A301 RMK A01 T00690050  RH  088%=      5-min Rain = 0
KLA1 131922Z 35007KT 07/05 A301 RMK A01 T00690051  RH  088%=      5-min Rain = 0
KLA1 131923Z 34008KT 07/05 A301 RMK A01 T00680049  RH  087%=      5-min Rain = 0
KLA1 131924Z 32008KT 07/05 A301 RMK A01 T00680049  RH  087%=      5-min Rain = 0
KLA1 131925Z 33005KT 07/05 A301 RMK A01 T00680049  RH  088%=      5-min Rain = 0
KLA1 131926Z 34006KT 07/05 A301 RMK A01 T00680050  RH  088%=      5-min Rain = 0
KLA1 131927Z 34008KT 07/05 A301 RMK A01 T00680050  RH  088%=      5-min Rain = 0
KLA1 131928Z 34006KT 07/05 A301 RMK A01 T00680050  RH  088%=      5-min Rain = 0
KLA1 131929Z 34006KT 07/05 A301 RMK A01 T00680050  RH  088%=      5-min Rain = 0
KLA1 131930Z 35006KT 07/05 A301 RMK A01 T00680050  RH  088%=      5-min Rain = 0
KLA1 131931Z 35007KT 07/05 A301 RMK A01 T00680050  RH  088%=      5-min Rain = 0
KLA1 131932Z 35006KT 07/05 A3009 RMK A01 T00680049  RH  088%=      5-min Rain = 0
KLA1 131933Z 35005KT 07/05 A3009 RMK A01 T00680051  RH  089%=      5-min Rain = 0
KLA1 131934Z 36008KT 07/05 A3009 RMK A01 T00680051  RH  089%=      5-min Rain = 0
KLA1 131935Z 35008KT 07/05 A3009 RMK A01 T00680051  RH  089%=      5-min Rain = 0
KLA1 131936Z 35009KT 07/05 A3009 RMK A01 T00680049  RH  088%=      5-min Rain = 0
KLA1 131937Z 34010KT 07/05 A3009 RMK A01 T00670049  RH  088%=      5-min Rain = 0
KLA1 131938Z 34006KT 07/05 A3009 RMK A01 T00670049  RH  088%=      5-min Rain = 0
KLA1 131939Z 35005KT 07/05 A3009 RMK A01 T00680049  RH  088%=      5-min Rain = 0
KLA1 131940Z 35007KT 07/05 A3008 RMK A01 T00670050  RH  089%=      5-min Rain = 0
KLA1 131941Z 36006KT 07/05 A3008 RMK A01 T00680050  RH  088%=      5-min Rain = 0
KLA1 131942Z 01007KT 07/05 A3008 RMK A01 T00670049  RH  088%=      5-min Rain = 0
KLA1 131943Z 01006KT 07/05 A3008 RMK A01 T00670048  RH  087%=      5-min Rain = 0
KLA1 131944Z 02006KT 07/05 A3008 RMK A01 T00670048  RH  087%=      5-min Rain = 0
KLA1 131945Z 01005KT 07/05 A3008 RMK A01 T00670049  RH  088%=      5-min Rain = 0
KLA1 131946Z 35005KT 07/05 A3008 RMK A01 T00680051  RH  089%=      5-min Rain = 0
KLA1 131947Z 35006KT 07/05 A3008 RMK A01 T00690051  RH  089%=      5-min Rain = 0
KLA1 131948Z 35006KT 07/05 A3008 RMK A01 T00690050  RH  088%=      5-min Rain = 0
KLA1 131949Z 36006KT 07/05 A3008 RMK A01 T00680050  RH  088%=      5-min Rain = 0
KLA1 131950Z 35007KT 07/05 A3007 RMK A01 T00680050  RH  088%=      5-min Rain = 0
KLA1 131951Z 00007KT 07/05 A3007 RMK A01 T00680050  RH  088%=      5-min Rain = 0
KLA1 131952Z 01005KT 07/05 A3007 RMK A01 T00680050  RH  088%=      5-min Rain = 0
KLA1 131953Z 00005KT 07/05 A3007 RMK A01 T00690052  RH  089%=      5-min Rain = 0
KLA1 131954Z 01004KT 07/05 A3007 RMK A01 T00690051  RH  088%=      5-min Rain = 0
KLA1 131955Z 01003KT 07/05 A3007 RMK A01 T00700052  RH  089%=      5-min Rain = 0
KLA1 131956Z 01004KT 07/05 A3007 RMK A01 T00710054  RH  089%=      5-min Rain = 0
KLA1 131957Z 36006KT 07/05 A3007 RMK A01 T00710052  RH  088%=      5-min Rain = 0
KLA1 131958Z 00006KT 07/05 A3007 RMK A01 T00710052  RH  088%=      5-min Rain = 0
KLA1 131959Z 00006KT 07/05 A3007 RMK A01 T00710053  RH  088%=      5-min Rain = 0
KLA1 132000Z 02008KT 07/05 A3007 RMK A01 T00710049  RH  086%=      5-min Rain = 0
KLA1 132001Z 02009KT 07/05 A3007 RMK A01 T00690045  RH  085%=      5-min Rain = 0
KLA1 132002Z 34006KT 07/05 A3007 RMK A01 T00690048  RH  086%=      5-min Rain = 0
KLA1 132003Z 34009KT 07/05 A3007 RMK A01 T00700048  RH  086%=      5-min Rain = 0
KLA1 132004Z 36007KT 07/05 A3007 RMK A01 T00700047  RH  086%=      5-min Rain = 0
KLA1 132005Z 00009KT 07/05 A3007 RMK A01 T00700048  RH  086%=      5-min Rain = 0
KLA1 132006Z 36008KT 07/05 A3007 RMK A01 T00700047  RH  086%=      5-min Rain = 0
KLA1 132007Z 00005KT 07/05 A3007 RMK A01 T00700047  RH  085%=      5-min Rain = 0
KLA1 132008Z 35005KT 07/05 A3007 RMK A01 T00700047  RH  086%=      5-min Rain = 0
KLA1 132009Z 35005KT 07/05 A3007 RMK A01 T00700048  RH  086%=      5-min Rain = 0
KLA1 132010Z 35006KT 07/05 A3007 RMK A01 T00700046  RH  085%=      5-min Rain = 0
KLA1 132011Z 00006KT 07/05 A3007 RMK A01 T00700047  RH  085%=      5-min Rain = 0
KLA1 132012Z 00007KT 07/05 A3007 RMK A01 T00700046  RH  085%=      5-min Rain = 0
KLA1 132013Z 01007KT 07/05 A3006 RMK A01 T00700045  RH  084%=      5-min Rain = 0
KLA1 132014Z 01007KT 07/05 A3006 RMK A01 T00700045  RH  084%=      5-min Rain = 0
KLA1 132015Z 35008KT 07/05 A3006 RMK A01 T00700045  RH  084%=      5-min Rain = 0
KLA1 132016Z 35005KT 07/05 A3006 RMK A01 T00690045  RH  085%=      5-min Rain = 0
KLA1 132017Z 35007KT 07/05 A3006 RMK A01 T00700046  RH  085%=      5-min Rain = 0
KLA1 132018Z 36007KT 07/04 A3006 RMK A01 T00690044  RH  084%=      5-min Rain = 0
KLA1 132019Z 00005KT 07/04 A3006 RMK A01 T00690044  RH  084%=      5-min Rain = 0
KLA1 132020Z 01008KT 07/05 A3006 RMK A01 T00690045  RH  085%=      5-min Rain = 0
KLA1 132021Z 00008KT 07/04 A3006 RMK A01 T00690044  RH  084%=      5-min Rain = 0
KLA1 132022Z 00010KT 07/04 A3006 RMK A01 T00690044  RH  084%=      5-min Rain = 0
KLA1 132023Z 35008KT 07/04 A3006 RMK A01 T00690042  RH  083%=      5-min Rain = 0
KLA1 132024Z 01006KT 07/04 A3006 RMK A01 T00690043  RH  083%=      5-min Rain = 0
KLA1 132025Z 35006KT 07/04 A3006 RMK A01 T00690044  RH  084%=      5-min Rain = 0
KLA1 132026Z 36006KT 07/04 A3006 RMK A01 T00690044  RH  084%=      5-min Rain = 0
KLA1 132027Z 01006KT 07/04 A3006 RMK A01 T00690043  RH  084%=      5-min Rain = 0
KLA1 132028Z 01007KT 07/04 A3006 RMK A01 T00690044  RH  084%=      5-min Rain = 0
KLA1 132029Z 36005KT 07/05 A3006 RMK A01 T00690045  RH  085%=      5-min Rain = 0
KLA1 132030Z 35006KT 07/05 A3006 RMK A01 T00690046  RH  085%=      5-min Rain = 0
KLA1 132031Z 34008KT 07/05 A3006 RMK A01 T00690045  RH  085%=      5-min Rain = 0
KLA1 132032Z 35006KT 07/05 A3006 RMK A01 T00690046  RH  085%=      5-min Rain = 0
KLA1 132033Z 35008KT 07/05 A3006 RMK A01 T00690046  RH  085%=      5-min Rain = 0
KLA1 132034Z 36009G15KT 07/04 A3006 RMK A01 T00680044  RH  085%=      5-min Rain = 0
KLA1 132035Z 36008KT 07/04 A3006 RMK A01 T00680043  RH  084%=      5-min Rain = 0
KLA1 132036Z 36009KT 07/04 A3006 RMK A01 T00680044  RH  085%=      5-min Rain = 0
KLA1 132037Z 35010KT 07/04 A3006 RMK A01 T00680043  RH  085%=      5-min Rain = 0
KLA1 132038Z 36011KT 07/04 A3006 RMK A01 T00670042  RH  084%=      5-min Rain = 0
KLA1 132039Z 36008KT 07/04 A3006 RMK A01 T00670042  RH  084%=      5-min Rain = 0
KLA1 132040Z 36011KT 07/04 A3006 RMK A01 T00670043  RH  085%=      5-min Rain = 0
KLA1 132041Z 35011KT 07/04 A3006 RMK A01 T00670042  RH  084%=      5-min Rain = 0
KLA1 132042Z 00009KT 07/04 A3006 RMK A01 T00670043  RH  084%=      5-min Rain = 0
KLA1 132043Z 35008KT 07/04 A3006 RMK A01 T00670043  RH  085%=      5-min Rain = 0
KLA1 132044Z 36009KT 07/04 A3005 RMK A01 T00670043  RH  085%=      5-min Rain = 0
KLA1 132045Z 01010G15KT 07/04 A3005 RMK A01 T00670043  RH  084%=      5-min Rain = 0
KLA1 132046Z 01011KT 07/04 A3005 RMK A01 T00670043  RH  085%=      5-min Rain = 0
KLA1 132047Z 00009KT 07/04 A3005 RMK A01 T00670042  RH  084%=      5-min Rain = 0
KLA1 132048Z 00008KT 07/04 A3005 RMK A01 T00670042  RH  084%=      5-min Rain = 0
KLA1 132049Z 00008KT 07/04 A3005 RMK A01 T00670043  RH  084%=      5-min Rain = 0
KLA1 132050Z 00008KT 07/04 A3005 RMK A01 T00670043  RH  084%=      5-min Rain = 0
KLA1 132051Z 00010KT 07/04 A3005 RMK A01 T00670042  RH  084%=      5-min Rain = 0
KLA1 132052Z 36010KT 07/04 A3005 RMK A01 T00670042  RH  084%=      5-min Rain = 0
KLA1 132053Z 35009KT 07/04 A3005 RMK A01 T00670042  RH  084%=      5-min Rain = 0
KLA1 132054Z 00006KT 07/04 A3005 RMK A01 T00670042  RH  084%=      5-min Rain = 0
KLA1 132055Z 35009KT 07/04 A3005 RMK A01 T00680043  RH  084%=      5-min Rain = 0
KLA1 132056Z 35008KT 07/04 A3005 RMK A01 T00680043  RH  084%=      5-min Rain = 0
KLA1 132057Z 34008KT 07/04 A3005 RMK A01 T00680044  RH  084%=      5-min Rain = 0
KLA1 132058Z 35007KT 07/04 A3005 RMK A01 T00680044  RH  084%=      5-min Rain = 0
KLA1 132059Z 36007KT 07/04 A3005 RMK A01 T00680044  RH  085%=      5-min Rain = 0
KLA1 132100Z 34008KT 07/05 A3005 RMK A01 T00680045  RH  085%=      5-min Rain = 0
KLA1 132101Z 35007KT 07/04 A3005 RMK A01 T00680044  RH  084%=      5-min Rain = 0
KLA1 132102Z 35010KT 07/04 A3005 RMK A01 T00680043  RH  084%=      5-min Rain = 0
KLA1 132103Z 35010KT 07/04 A3005 RMK A01 T00680043  RH  084%=      5-min Rain = 0
KLA1 132104Z 36009KT 07/04 A3005 RMK A01 T00680043  RH  084%=      5-min Rain = 0
KLA1 132105Z 35007KT 07/04 A3005 RMK A01 T00680043  RH  084%=      5-min Rain = 0
KLA1 132106Z 34007KT 07/04 A3005 RMK A01 T00680044  RH  085%=      5-min Rain = 0
KLA1 132107Z 35008KT 07/04 A3005 RMK A01 T00680044  RH  085%=      5-min Rain = 0
KLA1 132108Z 36008KT 07/04 A3005 RMK A01 T00680043  RH  084%=      5-min Rain = 0
KLA1 132109Z 35010KT 07/04 A3005 RMK A01 T00680042  RH  084%=      5-min Rain = 0
KLA1 132110Z 36009KT 07/04 A3005 RMK A01 T00670042  RH  084%=      5-min Rain = 0
KLA1 132111Z 35011KT 07/04 A3005 RMK A01 T00670042  RH  084%=      5-min Rain = 0
KLA1 132112Z 35010KT 07/04 A3005 RMK A01 T00670042  RH  084%=      5-min Rain = 0
KLA1 132113Z 35012KT 07/04 A3004 RMK A01 T00670040  RH  083%=      5-min Rain = 0
KLA1 132114Z 34011KT 07/04 A3004 RMK A01 T00670041  RH  083%=      5-min Rain = 0
KLA1 132115Z 35010KT 07/04 A3005 RMK A01 T00670041  RH  083%=      5-min Rain = 0
KLA1 132116Z 35009KT 07/04 A3005 RMK A01 T00670041  RH  083%=      5-min Rain = 0
KLA1 132117Z 35007KT 07/04 A3005 RMK A01 T00670041  RH  083%=      5-min Rain = 0
KLA1 132118Z 35008KT 07/04 A3005 RMK A01 T00670041  RH  084%=      5-min Rain = 0
KLA1 132119Z 35009KT 07/04 A3004 RMK A01 T00670041  RH  083%=      5-min Rain = 0
KLA1 132120Z 34007KT 07/04 A3005 RMK A01 T00680042  RH  083%=      5-min Rain = 0
KLA1 132121Z 36010KT 07/04 A3005 RMK A01 T00670042  RH  084%=      5-min Rain = 0
KLA1 132122Z 35011KT 07/04 A3005 RMK A01 T00670041  RH  083%=      5-min Rain = 0
KLA1 132123Z 34010KT 07/04 A3005 RMK A01 T00680041  RH  083%=      5-min Rain = 0
KLA1 132124Z 35008G13KT 07/04 A3005 RMK A01 T00670040  RH  083%=      5-min Rain = 0
KLA1 132125Z 35009KT 07/04 A3005 RMK A01 T00670040  RH  083%=      5-min Rain = 0
KLA1 132126Z 35009KT 07/04 A3005 RMK A01 T00670039  RH  082%=      5-min Rain = 0
KLA1 132127Z 35008KT 07/04 A3005 RMK A01 T00670039  RH  082%=      5-min Rain = 0
KLA1 132128Z 34007KT 07/04 A3005 RMK A01 T00680040  RH  083%=      5-min Rain = 0
KLA1 132129Z 35008KT 07/04 A3004 RMK A01 T00680040  RH  083%=      5-min Rain = 0
KLA1 132130Z 35007KT 07/04 A3004 RMK A01 T00680040  RH  082%=      5-min Rain = 0
KLA1 132131Z 00009KT 07/04 A3004 RMK A01 T00680041  RH  083%=      5-min Rain = 0
KLA1 132132Z 34007KT 07/04 A3004 RMK A01 T00680040  RH  082%=      5-min Rain = 0
KLA1 132133Z 35007KT 07/04 A3004 RMK A01 T00680041  RH  083%=      5-min Rain = 0
KLA1 132134Z 34010KT 07/04 A3004 RMK A01 T00690041  RH  083%=      5-min Rain = 0
KLA1 132135Z 00011KT 07/04 A3004 RMK A01 T00690040  RH  082%=      5-min Rain = 0
KLA1 132136Z 35009KT 07/04 A3004 RMK A01 T00690040  RH  082%=      5-min Rain = 0
KLA1 132137Z 36007KT 07/04 A3004 RMK A01 T00690040  RH  082%=      5-min Rain = 0
KLA1 132138Z 34008KT 07/04 A3004 RMK A01 T00690040  RH  082%=      5-min Rain = 0
KLA1 132139Z 35008KT 07/04 A3004 RMK A01 T00690040  RH  082%=      5-min Rain = 0
KLA1 132140Z 34005KT 07/04 A3004 RMK A01 T00690040  RH  082%=      5-min Rain = 0
KLA1 132141Z 35009KT 07/04 A3004 RMK A01 T00690040  RH  082%=      5-min Rain = 0
KLA1 132142Z 34010KT 07/04 A3004 RMK A01 T00690040  RH  081%=      5-min Rain = 0
KLA1 132143Z 34008KT 07/04 A3004 RMK A01 T00690040  RH  082%=      5-min Rain = 0
KLA1 132144Z 35011KT 07/04 A3004 RMK A01 T00690040  RH  081%=      5-min Rain = 0
KLA1 132145Z 35009KT 07/04 A3004 RMK A01 T00690039  RH  081%=      5-min Rain = 0
KLA1 132146Z 35009KT 07/04 A3004 RMK A01 T00690039  RH  081%=      5-min Rain = 0
KLA1 132147Z 35006KT 07/04 A3004 RMK A01 T00690039  RH  081%=      5-min Rain = 0
KLA1 132148Z 36007KT 07/04 A3004 RMK A01 T00690040  RH  082%=      5-min Rain = 0
KLA1 132149Z 35008KT 07/04 A3004 RMK A01 T00700040  RH  081%=      5-min Rain = 0
KLA1 132150Z 35008KT 07/04 A3004 RMK A01 T00700039  RH  081%=      5-min Rain = 0
KLA1 132151Z 35008KT 07/04 A3004 RMK A01 T00700039  RH  081%=      5-min Rain = 0
KLA1 132152Z 34007KT 07/04 A3004 RMK A01 T00700039  RH  081%=      5-min Rain = 0
KLA1 132153Z 36008KT 07/04 A3004 RMK A01 T00700039  RH  081%=      5-min Rain = 0
KLA1 132154Z 35009KT 07/04 A3004 RMK A01 T00700038  RH  080%=      5-min Rain = 0
KLA1 132155Z 35009KT 07/04 A3004 RMK A01 T00700038  RH  080%=      5-min Rain = 0
KLA1 132156Z 35010KT 07/04 A3004 RMK A01 T00700038  RH  080%=      5-min Rain = 0
KLA1 132157Z 34009KT 07/04 A3004 RMK A01 T00700038  RH  080%=      5-min Rain = 0
KLA1 132158Z 34007KT 07/04 A3004 RMK A01 T00700039  RH  081%=      5-min Rain = 0
KLA1 132159Z 35010KT 07/04 A3004 RMK A01 T00700038  RH  080%=      5-min Rain = 0
KLA1 132200Z 35007KT 07/04 A3004 RMK A01 T00700037  RH  080%=      5-min Rain = 0
KLA1 132201Z 36006KT 07/04 A3004 RMK A01 T00700038  RH  081%=      5-min Rain = 0
KLA1 132202Z 35006KT 07/04 A3004 RMK A01 T00700039  RH  080%=      5-min Rain = 0
KLA1 132203Z 35005KT 07/04 A3004 RMK A01 T00700038  RH  080%=      5-min Rain = 0
KLA1 132204Z 36007KT 07/04 A3004 RMK A01 T00700038  RH  080%=      5-min Rain = 0
KLA1 132205Z 35007KT 07/04 A3004 RMK A01 T00700038  RH  080%=      5-min Rain = 0
KLA1 132206Z 35007KT 07/04 A3004 RMK A01 T00700038  RH  080%=      5-min Rain = 0
KLA1 132207Z 35010KT 07/04 A3004 RMK A01 T00700037  RH  080%=      5-min Rain = 0
KLA1 132208Z 34008KT 07/04 A3004 RMK A01 T00700037  RH  079%=      5-min Rain = 0
KLA1 132209Z 35007KT 07/04 A3004 RMK A01 T00700037  RH  079%=      5-min Rain = 0
KLA1 132210Z 35006KT 07/04 A3004 RMK A01 T00700037  RH  079%=      5-min Rain = 0
KLA1 132211Z 35009G14KT 07/04 A3004 RMK A01 T00700037  RH  079%=      5-min Rain = 0
KLA1 132212Z 35008KT 07/04 A3004 RMK A01 T00700037  RH  079%=      5-min Rain = 0
KLA1 132213Z 35007G12KT 07/04 A3004 RMK A01 T00700037  RH  080%=      5-min Rain = 0
KLA1 132214Z 32005KT 07/04 A3004 RMK A01 T00710039  RH  080%=      5-min Rain = 0
KLA1 132215Z 33006KT 07/04 A3004 RMK A01 T00710039  RH  080%=      5-min Rain = 0
KLA1 132216Z 32006KT 07/04 A3004 RMK A01 T00710039  RH  080%=      5-min Rain = 0
KLA1 132217Z 32008KT 07/04 A3004 RMK A01 T00710039  RH  080%=      5-min Rain = 0
KLA1 132218Z 33007KT 07/04 A3004 RMK A01 T00710037  RH  079%=      5-min Rain = 0
KLA1 132219Z 33006KT 07/04 A3004 RMK A01 T00710038  RH  080%=      5-min Rain = 0
KLA1 132220Z 36006KT 07/04 A3004 RMK A01 T00700038  RH  080%=      5-min Rain = 0
KLA1 132221Z 35005KT 07/04 A3004 RMK A01 T00700038  RH  080%=      5-min Rain = 0
KLA1 132222Z 35006KT 07/04 A3004 RMK A01 T00700038  RH  080%=      5-min Rain = 0
KLA1 132223Z 35005KT 07/04 A3004 RMK A01 T00700038  RH  080%=      5-min Rain = 0
KLA1 132224Z 36008KT 07/04 A3003 RMK A01 T00700037  RH  079%=      5-min Rain = 0
KLA1 132225Z 35008KT 07/04 A3003 RMK A01 T00700037  RH  079%=      5-min Rain = 0
KLA1 132226Z 35007KT 07/04 A3003 RMK A01 T00700036  RH  079%=      5-min Rain = 0
KLA1 132227Z 32006KT 07/04 A3003 RMK A01 T00700036  RH  079%=      5-min Rain = 0
KLA1 132228Z 35006KT 07/04 A3003 RMK A01 T00700036  RH  079%=      5-min Rain = 0
KLA1 132229Z 34003KT 07/04 A3003 RMK A01 T00700037  RH  079%=      5-min Rain = 0
KLA1 132230Z 35005KT 07/04 A3003 RMK A01 T00700038  RH  080%=      5-min Rain = 0
KLA1 132231Z 35006KT 07/04 A3003 RMK A01 T00700038  RH  080%=      5-min Rain = 0
KLA1 132232Z 36006KT 07/04 A3003 RMK A01 T00700037  RH  079%=      5-min Rain = 0
KLA1 132233Z 35006KT 07/04 A3003 RMK A01 T00700037  RH  079%=      5-min Rain = 0
KLA1 132234Z 34007G12KT 07/04 A3003 RMK A01 T00700036  RH  079%=      5-min Rain = 0
KLA1 132235Z 35007KT 07/04 A3003 RMK A01 T00700036  RH  079%=      5-min Rain = 0
KLA1 132236Z 35008KT 07/04 A3003 RMK A01 T00700036  RH  079%=      5-min Rain = 0
KLA1 132237Z 34008KT 07/04 A3003 RMK A01 T00700036  RH  079%=      5-min Rain = 0
KLA1 132238Z 35008KT 07/04 A3003 RMK A01 T00700036  RH  079%=      5-min Rain = 0
KLA1 132239Z 35008KT 07/04 A3003 RMK A01 T00700036  RH  079%=      5-min Rain = 0
KLA1 132240Z 35007KT 07/04 A3003 RMK A01 T00700036  RH  079%=      5-min Rain = 0
KLA1 132241Z 35010KT 07/04 A3003 RMK A01 T00700036  RH  079%=      5-min Rain = 0
KLA1 132242Z 35008KT 07/04 A3003 RMK A01 T00700036  RH  079%=      5-min Rain = 0
KLA1 132243Z 34008KT 07/04 A3003 RMK A01 T00700036  RH  079%=      5-min Rain = 0
KLA1 132244Z 35010KT 07/04 A3003 RMK A01 T00700036  RH  079%=      5-min Rain = 0
KLA1 132245Z 35009KT 07/04 A3003 RMK A01 T00690036  RH  079%=      5-min Rain = 0
KLA1 132246Z 36010KT 07/04 A3004 RMK A01 T00690035  RH  079%=      5-min Rain = 0
KLA1 132247Z 33006KT 07/04 A3004 RMK A01 T00690035  RH  079%=      5-min Rain = 0
KLA1 132248Z 34005KT 07/04 A3004 RMK A01 T00690036  RH  080%=      5-min Rain = 0
KLA1 132249Z 32006KT 07/04 A3004 RMK A01 T00680037  RH  080%=      5-min Rain = 0
KLA1 132250Z 32008KT 07/04 A3004 RMK A01 T00680037  RH  080%=      5-min Rain = 0
KLA1 132251Z 34006KT 07/04 A3004 RMK A01 T00690037  RH  080%=      5-min Rain = 0
KLA1 132252Z 33009KT 07/04 A3004 RMK A01 T00690037  RH  080%=      5-min Rain = 0
KLA1 132253Z 35007KT 07/04 A3004 RMK A01 T00690037  RH  080%=      5-min Rain = 0
KLA1 132254Z 34008KT 07/04 A3004 RMK A01 T00680037  RH  080%=      5-min Rain = 0
KLA1 132255Z 35010KT 07/04 A3003 RMK A01 T00680036  RH  080%=      5-min Rain = 0
KLA1 132256Z 36012KT 07/04 A3004 RMK A01 T00680036  RH  080%=      5-min Rain = 0
KLA1 132257Z 35009KT 07/04 A3003 RMK A01 T00670035  RH  080%=      5-min Rain = 0
KLA1 132258Z 35008KT 07/04 A3003 RMK A01 T00670036  RH  081%=      5-min Rain = 0
KLA1 132259Z 34007KT 07/04 A3003 RMK A01 T00670037  RH  081%=      5-min Rain = 0
KLA1 132300Z 35009KT 07/04 A3003 RMK A01 T00670037  RH  081%=      5-min Rain = 0
KLA1 132301Z 35007KT 07/04 A3003 RMK A01 T00670036  RH  081%=      5-min Rain = 0
KLA1 132302Z 34007KT 07/04 A3003 RMK A01 T00660036  RH  081%=      5-min Rain = 0
KLA1 132303Z 35009KT 07/04 A3003 RMK A01 T00660036  RH  081%=      5-min Rain = 0
KLA1 132304Z 35008KT 07/04 A3003 RMK A01 T00660036  RH  081%=      5-min Rain = 0
KLA1 132305Z 35010KT 07/04 A3003 RMK A01 T00660036  RH  081%=      5-min Rain = 0
KLA1 132306Z 35009KT 07/04 A3003 RMK A01 T00660035  RH  081%=      5-min Rain = 0
KLA1 132307Z 35008KT 07/04 A3003 RMK A01 T00660036  RH  081%=      5-min Rain = 0
KLA1 132308Z 36009KT 07/04 A3003 RMK A01 T00660036  RH  081%=      5-min Rain = 0
KLA1 132309Z 35009KT 07/04 A3003 RMK A01 T00660036  RH  082%=      5-min Rain = 0
KLA1 132310Z 34009KT 07/04 A3003 RMK A01 T00660036  RH  081%=      5-min Rain = 0
KLA1 132311Z 33007KT 07/04 A3003 RMK A01 T00660036  RH  081%=      5-min Rain = 0
KLA1 132312Z 33005KT 07/04 A3003 RMK A01 T00650036  RH  082%=      5-min Rain = 0
KLA1 132313Z 33009KT 07/04 A3003 RMK A01 T00650036  RH  082%=      5-min Rain = 0
KLA1 132314Z 34007KT 07/04 A3003 RMK A01 T00650036  RH  082%=      5-min Rain = 0
KLA1 132315Z 35010KT 07/04 A3003 RMK A01 T00650036  RH  082%=      5-min Rain = 0
KLA1 132316Z 35008KT 07/04 A3003 RMK A01 T00650036  RH  081%=      5-min Rain = 0
KLA1 132317Z 35008KT 07/04 A3003 RMK A01 T00650036  RH  082%=      5-min Rain = 0
KLA1 132318Z 35010G15KT 07/04 A3003 RMK A01 T00650036  RH  082%=      5-min Rain = 0
KLA1 132319Z 35011G16KT 07/04 A3003 RMK A01 T00650036  RH  082%=      5-min Rain = 0
KLA1 132320Z 34009KT 07/04 A3003 RMK A01 T00650036  RH  082%=      5-min Rain = 0
KLA1 132321Z 35008KT 06/04 A3003 RMK A01 T00640036  RH  082%=      5-min Rain = 0
KLA1 132322Z 35008G14KT 06/04 A3003 RMK A01 T00640036  RH  082%=      5-min Rain = 0
KLA1 132323Z 36013KT 06/04 A3003 RMK A01 T00640036  RH  082%=      5-min Rain = 0
KLA1 132324Z 36011G17KT 06/04 A3002 RMK A01 T00640035  RH  082%=      5-min Rain = 0
KLA1 132325Z 00010KT 06/04 A3002 RMK A01 T00640035  RH  082%=      5-min Rain = 0
KLA1 132326Z 36009KT 06/04 A3002 RMK A01 T00640036  RH  082%=      5-min Rain = 0
KLA1 132327Z 36009KT 06/04 A3002 RMK A01 T00640036  RH  082%=      5-min Rain = 0
KLA1 132328Z 34013KT 06/04 A3002 RMK A01 T00640036  RH  082%=      5-min Rain = 0
KLA1 132329Z 35011KT 06/04 A3002 RMK A01 T00630035  RH  082%=      5-min Rain = 0
KLA1 132330Z 34011KT 06/04 A3002 RMK A01 T00640036  RH  083%=      5-min Rain = 0
KLA1 132331Z 35010KT 06/04 A3002 RMK A01 T00630035  RH  083%=      5-min Rain = 0
KLA1 132332Z 34010KT 06/04 A3002 RMK A01 T00630035  RH  083%=      5-min Rain = 0
KLA1 132333Z 36008KT 06/04 A3002 RMK A01 T00630035  RH  083%=      5-min Rain = 0
KLA1 132334Z 35008KT 06/04 A3002 RMK A01 T00630035  RH  083%=      5-min Rain = 0
KLA1 132335Z 34008KT 06/04 A3003 RMK A01 T00630036  RH  083%=      5-min Rain = 0
KLA1 132336Z 32008KT 06/04 A3003 RMK A01 T00630036  RH  083%=      5-min Rain = 0
KLA1 132337Z 33009G16KT 06/04 A3003 RMK A01 T00630036  RH  083%=      5-min Rain = 0
KLA1 132338Z 33010G15KT 06/04 A3003 RMK A01 T00630036  RH  083%=      5-min Rain = 0
KLA1 132339Z 34009KT 06/04 A3003 RMK A01 T00630035  RH  083%=      5-min Rain = 0
KLA1 132340Z 35007G12KT 06/04 A3003 RMK A01 T00630036  RH  083%=      5-min Rain = 0
KLA1 132341Z 00007KT 06/04 A3003 RMK A01 T00630036  RH  083%=      5-min Rain = 0
KLA1 132342Z 35011KT 06/04 A3003 RMK A01 T00630036  RH  083%=      5-min Rain = 0
KLA1 132343Z 35013KT 06/04 A3003 RMK A01 T00630035  RH  083%=      5-min Rain = 0
KLA1 132344Z 35012KT 06/04 A3003 RMK A01 T00630035  RH  082%=      5-min Rain = 0
KLA1 132345Z 35010KT 06/04 A3003 RMK A01 T00630035  RH  082%=      5-min Rain = 0
KLA1 132346Z 36011G16KT 06/04 A3002 RMK A01 T00630036  RH  083%=      5-min Rain = 0
KLA1 132347Z 36012KT 06/04 A3002 RMK A01 T00630035  RH  083%=      5-min Rain = 0
KLA1 132348Z 35013KT 06/04 A3002 RMK A01 T00630035  RH  083%=      5-min Rain = 0
KLA1 132349Z 35012KT 06/04 A3002 RMK A01 T00620035  RH  083%=      5-min Rain = 0
KLA1 132350Z 35012KT 06/04 A3002 RMK A01 T00630035  RH  083%=      5-min Rain = 0
KLA1 132351Z 35011KT 06/04 A3002 RMK A01 T00620035  RH  083%=      5-min Rain = 0
KLA1 132352Z 35012KT 06/04 A3003 RMK A01 T00630036  RH  083%=      5-min Rain = 0
KLA1 132353Z 35011KT 06/04 A3003 RMK A01 T00620035  RH  083%=      5-min Rain = 0
KLA1 132354Z 34009KT 06/04 A3003 RMK A01 T00620035  RH  083%=      5-min Rain = 0
KLA1 132355Z 35010G15KT 06/04 A3003 RMK A01 T00620036  RH  083%=      5-min Rain = 0
KLA1 132356Z 34012KT 06/04 A3003 RMK A01 T00620036  RH  083%=      5-min Rain = 0
KLA1 132357Z 35012KT 06/04 A3003 RMK A01 T00620036  RH  083%=      5-min Rain = 0
KLA1 132358Z 36012KT 06/04 A3002 RMK A01 T00610036  RH  084%=      5-min Rain = 0
KLA1 132359Z 36012KT 06/04 A3002 RMK A01 T00610036  RH  084%=      5-min Rain = 0
KLA1 140000Z 35013KT 06/04 A3002 RMK A01 T00610037  RH  084%=      5-min Rain = 0
KLA1 140001Z 34009KT 06/04 A3003 RMK A01 T00610037  RH  085%=      5-min Rain = 0
KLA1 140002Z 34012KT 06/04 A3003 RMK A01 T00600037  RH  085%=      5-min Rain = 0
KLA1 140003Z 35012G19KT 06/04 A3003 RMK A01 T00600037  RH  085%=      5-min Rain = 0
KLA1 140004Z 34012G17KT 06/04 A3002 RMK A01 T00600037  RH  085%=      5-min Rain = 0
KLA1 140005Z 35014KT 06/04 A3002 RMK A01 T00600037  RH  085%=      5-min Rain = 0
KLA1 140006Z 34010KT 06/04 A3002 RMK A01 T00590037  RH  086%=      5-min Rain = 0
KLA1 140007Z 35012KT 06/04 A3002 RMK A01 T00590037  RH  086%=      5-min Rain = 0
KLA1 140008Z 36012KT 06/04 A3002 RMK A01 T00590037  RH  086%=      5-min Rain = 0
KLA1 140009Z 35012KT 06/04 A3002 RMK A01 T00580037  RH  086%=      5-min Rain = 0
KLA1 140010Z 35011KT 06/04 A3002 RMK A01 T00590037  RH  086%=      5-min Rain = 0
KLA1 140011Z 36010KT 06/04 A3002 RMK A01 T00590037  RH  086%=      5-min Rain = 0
KLA1 140012Z 34011G16KT 06/04 A3002 RMK A01 T00580038  RH  086%=      5-min Rain = 0
KLA1 140013Z 34012KT 06/04 A3002 RMK A01 T00580037  RH  087%=      5-min Rain = 0
KLA1 140014Z 35011G16KT 06/04 A3002 RMK A01 T00580038  RH  087%=      5-min Rain = 0
KLA1 140015Z 35013KT 06/04 A3002 RMK A01 T00580038  RH  087%=      5-min Rain = 0
KLA1 140016Z 35012G19KT 06/04 A3002 RMK A01 T00570037  RH  087%=      5-min Rain = 0
KLA1 140017Z 35013KT 06/04 A3002 RMK A01 T00570037  RH  087%=      5-min Rain = 0
KLA1 140018Z 35012KT 06/04 A3002 RMK A01 T00570037  RH  087%=      5-min Rain = 0
KLA1 140019Z 35011KT 06/04 A3002 RMK A01 T00560037  RH  088%=      5-min Rain = 0
KLA1 140020Z 35011KT 06/04 A3002 RMK A01 T00560038  RH  088%=      5-min Rain = 0
KLA1 140021Z 34012KT 06/04 A3002 RMK A01 T00560038  RH  088%=      5-min Rain = 0
KLA1 140022Z 35009KT 06/04 A3002 RMK A01 T00560038  RH  088%=      5-min Rain = 0
KLA1 140023Z 35012KT 06/04 A3002 RMK A01 T00560039  RH  088%=      5-min Rain = 0
KLA1 140024Z 36014KT 06/04 A3002 RMK A01 T00560038  RH  088%=      5-min Rain = 0
KLA1 140025Z 36014KT 06/04 A3002 RMK A01 T00560038  RH  088%=      5-min Rain = 0
KLA1 140026Z 36010KT 06/04 A3001 RMK A01 T00550038  RH  088%=      5-min Rain = 0
KLA1 140027Z 01010G17KT 06/04 A3001 RMK A01 T00550038  RH  089%=      5-min Rain = 0
KLA1 140028Z 00012KT 06/04 A3001 RMK A01 T00550039  RH  089%=      5-min Rain = 0
KLA1 140029Z 35012KT 06/04 A3002 RMK A01 T00550038  RH  089%=      5-min Rain = 0
KLA1 140030Z 34012KT 06/04 A3002 RMK A01 T00550038  RH  089%=      5-min Rain = 0
KLA1 140031Z 34008G13KT 06/04 A3003 RMK A01 T00550037  RH  088%=      5-min Rain = 0
KLA1 140032Z 35011G16KT 06/04 A3003 RMK A01 T00550037  RH  089%=      5-min Rain = 0
KLA1 140033Z 34011KT 06/04 A3003 RMK A01 T00550037  RH  089%=      5-min Rain = 0
KLA1 140034Z 35011G16KT 06/04 A3003 RMK A01 T00550037  RH  089%=      5-min Rain = 0
KLA1 140035Z 35011KT 06/04 A3003 RMK A01 T00550037  RH  089%=      5-min Rain = 0
KLA1 140036Z 35012KT 06/04 A3003 RMK A01 T00550037  RH  089%=      5-min Rain = 0
KLA1 140037Z 36012KT 05/04 A3003 RMK A01 T00540037  RH  089%=      5-min Rain = 0
KLA1 140038Z 35010KT 05/04 A3003 RMK A01 T00540038  RH  089%=      5-min Rain = 0
KLA1 140039Z 35010KT 05/04 A3003 RMK A01 T00540038  RH  089%=      5-min Rain = 0
KLA1 140040Z 34009KT 05/04 A3003 RMK A01 T00540038  RH  089%=      5-min Rain = 0
KLA1 140041Z 34010KT 05/04 A3004 RMK A01 T00540038  RH  089%=      5-min Rain = 0
KLA1 140042Z 34010KT 05/04 A3004 RMK A01 T00540038  RH  089%=      5-min Rain = 0
KLA1 140043Z 33007KT 05/04 A3004 RMK A01 T00540038  RH  089%=      5-min Rain = 0
KLA1 140044Z 33007G12KT 05/04 A3004 RMK A01 T00540038  RH  090%=      5-min Rain = 0
KLA1 140045Z 33006KT 05/04 A3004 RMK A01 T00540039  RH  090%=      5-min Rain = 0
KLA1 140046Z 34008KT 05/04 A3004 RMK A01 T00540039  RH  090%=      5-min Rain = 0
KLA1 140047Z 32007KT 05/04 A3004 RMK A01 T00540039  RH  090%=      5-min Rain = 0
KLA1 140048Z 33008KT 05/04 A3004 RMK A01 T00540039  RH  090%=      5-min Rain = 0
KLA1 140049Z 34008KT 05/04 A3004 RMK A01 T00540040  RH  090%=      5-min Rain = 0
KLA1 140050Z 33007KT 05/04 A3004 RMK A01 T00540039  RH  090%=      5-min Rain = 0
KLA1 140051Z 33008KT 05/04 A3004 RMK A01 T00540040  RH  091%=      5-min Rain = 0
KLA1 140052Z 34009KT 05/04 A3004 RMK A01 T00540040  RH  091%=      5-min Rain = 0
KLA1 140053Z 34009KT 05/04 A3003 RMK A01 T00530040  RH  091%=      5-min Rain = 0
KLA1 140054Z 34009KT 05/04 A3003 RMK A01 T00530040  RH  091%=      5-min Rain = 0
KLA1 140055Z 34008KT 05/04 A3003 RMK A01 T00530040  RH  091%=      5-min Rain = 0
KLA1 140056Z 34009KT 05/04 A3003 RMK A01 T00530041  RH  092%=      5-min Rain = 0
KLA1 140057Z 33008KT 05/04 A3003 RMK A01 T00530041  RH  092%=      5-min Rain = 0
KLA1 140058Z 35011KT 05/04 A3003 RMK A01 T00530041  RH  092%=      5-min Rain = 0
KLA1 140059Z 35010KT 05/04 A3003 RMK A01 T00520040  RH  092%=      5-min Rain = 0
KLA1 140100Z 34008KT 05/04 A3003 RMK A01 T00520040  RH  092%=      5-min Rain = 0
KLA1 140101Z 34011KT 05/04 A3003 RMK A01 T00520040  RH  092%=      5-min Rain = 0
KLA1 140102Z 34010KT 05/04 A3003 RMK A01 T00520040  RH  092%=      5-min Rain = 0
KLA1 140103Z 34009KT 05/04 A3004 RMK A01 T00520041  RH  092%=      5-min Rain = 0
KLA1 140104Z 34010KT 05/04 A3004 RMK A01 T00520041  RH  092%=      5-min Rain = 0
KLA1 140105Z 34008KT 05/04 A3004 RMK A01 T00520040  RH  092%=      5-min Rain = 0
KLA1 140106Z 33007KT 05/04 A3004 RMK A01 T00520041  RH  093%=      5-min Rain = 0
KLA1 140107Z 33007KT 05/04 A3004 RMK A01 T00520041  RH  093%=      5-min Rain = 0
KLA1 140108Z 33007KT 05/04 A3004 RMK A01 T00520042  RH  093%=      5-min Rain = 0
KLA1 140109Z 32007KT 05/04 A3004 RMK A01 T00520042  RH  093%=      5-min Rain = 0
KLA1 140110Z 32007KT 05/04 A3004 RMK A01 T00520042  RH  093%=      5-min Rain = 0
KLA1 140111Z 32006KT 05/04 A3004 RMK A01 T00520042  RH  093%=      5-min Rain = 0
KLA1 140112Z 32005KT 05/04 A3004 RMK A01 T00520042  RH  093%=      5-min Rain = 0
KLA1 140113Z 33006KT 05/04 A3004 RMK A01 T00520042  RH  094%=      5-min Rain = 0
KLA1 140114Z 32007KT 05/04 A3004 RMK A01 T00520042  RH  094%=      5-min Rain = 0
KLA1 140115Z 33007KT 05/04 A3003 RMK A01 T00520043  RH  094%=      5-min Rain = 0
KLA1 140116Z 33008KT 05/04 A3003 RMK A01 T00520043  RH  094%=      5-min Rain = 0
KLA1 140117Z 34007KT 05/04 A3003 RMK A01 T00520043  RH  094%=      5-min Rain = 0
KLA1 140118Z 34005KT 05/04 A3003 RMK A01 T00520043  RH  094%=      5-min Rain = 0
KLA1 140119Z 34006KT 05/04 A3003 RMK A01 T00520043  RH  094%=      5-min Rain = 0
KLA1 140120Z 34008KT 05/04 A3003 RMK A01 T00520043  RH  094%=      5-min Rain = 0
KLA1 140121Z 34006KT 05/04 A3003 RMK A01 T00520043  RH  094%=      5-min Rain = 0
KLA1 140122Z 34008KT 05/04 A3003 RMK A01 T00520043  RH  094%=      5-min Rain = 0
KLA1 140123Z 33005KT 05/04 A3003 RMK A01 T00520043  RH  094%=      5-min Rain = 0
KLA1 140124Z 34005KT 05/04 A3003 RMK A01 T00520042  RH  094%=      5-min Rain = 0
KLA1 140125Z 35008G13KT 05/04 A3003 RMK A01 T00520043  RH  094%=      5-min Rain = 0
KLA1 140126Z 34007KT 05/04 A3003 RMK A01 T00520043  RH  094%=      5-min Rain = 0
KLA1 140127Z 33006KT 05/04 A3004 RMK A01 T00520042  RH  094%=      5-min Rain = 0
KLA1 140128Z 33007KT 05/04 A3004 RMK A01 T00520042  RH  094%=      5-min Rain = 0
KLA1 140129Z 34006KT 05/04 A3003 RMK A01 T00520042  RH  094%=      5-min Rain = 0
KLA1 140130Z 35009KT 05/04 A3003 RMK A01 T00520042  RH  093%=      5-min Rain = 0
KLA1 140131Z 33009KT 05/04 A3003 RMK A01 T00520041  RH  093%=      5-min Rain = 0
KLA1 140132Z 34006KT 05/04 A3003 RMK A01 T00520041  RH  093%=      5-min Rain = 0
KLA1 140133Z 35009KT 05/04 A3003 RMK A01 T00520041  RH  093%=      5-min Rain = 0
KLA1 140134Z 35010KT 05/04 A3003 RMK A01 T00520042  RH  093%=      5-min Rain = 0
KLA1 140135Z 35009KT 05/04 A3003 RMK A01 T00520041  RH  093%=      5-min Rain = 0
KLA1 140136Z 36010KT 05/04 A3003 RMK A01 T00520041  RH  093%=      5-min Rain = 0
KLA1 140137Z 35010KT 05/04 A3003 RMK A01 T00520041  RH  093%=      5-min Rain = 0
KLA1 140138Z 34009KT 05/04 A3002 RMK A01 T00520041  RH  093%=      5-min Rain = 0
KLA1 140139Z 34011KT 05/04 A3002 RMK A01 T00520041  RH  093%=      5-min Rain = 0
KLA1 140140Z 35008KT 05/04 A3002 RMK A01 T00520041  RH  093%=      5-min Rain = 0
KLA1 140141Z 33008KT 05/04 A3002 RMK A01 T00520042  RH  093%=      5-min Rain = 0
KLA1 140142Z 34010KT 05/04 A3003 RMK A01 T00520042  RH  093%=      5-min Rain = 0
KLA1 140143Z 33010KT 05/04 A3002 RMK A01 T00520042  RH  094%=      5-min Rain = 0
KLA1 140144Z 35010KT 05/04 A3002 RMK A01 T00510042  RH  094%=      5-min Rain = 0
KLA1 140145Z 34006KT 05/04 A3002 RMK A01 T00520042  RH  094%=      5-min Rain = 0
KLA1 140146Z 34009KT 05/04 A3002 RMK A01 T00510042  RH  094%=      5-min Rain = 0
KLA1 140147Z 36011KT 05/04 A3002 RMK A01 T00510042  RH  094%=      5-min Rain = 0
KLA1 140148Z 35009KT 05/04 A3002 RMK A01 T00510042  RH  094%=      5-min Rain = 0
KLA1 140149Z 35011KT 05/04 A3002 RMK A01 T00510043  RH  094%=      5-min Rain = 0
KLA1 140150Z 35012KT 05/04 A3002 RMK A01 T00510042  RH  094%=      5-min Rain = 0
KLA1 140151Z 34010KT 05/04 A3002 RMK A01 T00510042  RH  094%=      5-min Rain = 0
KLA1 140152Z 35009KT 05/04 A3002 RMK A01 T00510041  RH  094%=      5-min Rain = 0
KLA1 140153Z 34010KT 05/04 A3002 RMK A01 T00510041  RH  094%=      5-min Rain = 0
KLA1 140154Z 34010KT 05/04 A3002 RMK A01 T00510041  RH  094%=      5-min Rain = 0
KLA1 140155Z 34009KT 05/04 A3002 RMK A01 T00510041  RH  093%=      5-min Rain = 0
KLA1 140156Z 33011G16KT 05/04 A3002 RMK A01 T00510041  RH  093%=      5-min Rain = 0
KLA1 140157Z 34013KT 05/04 A3001 RMK A01 T00510041  RH  093%=      5-min Rain = 0
KLA1 140158Z 35010KT 05/04 A3001 RMK A01 T00510041  RH  093%=      5-min Rain = 0
KLA1 140159Z 35012KT 05/04 A3001 RMK A01 T00510041  RH  093%=      5-min Rain = 0
KLA1 140200Z 00009KT 05/04 A3001 RMK A01 T00510041  RH  093%=      5-min Rain = 0
KLA1 140201Z 01011KT 05/04 A3001 RMK A01 T00510041  RH  094%=      5-min Rain = 0
KLA1 140202Z 01013KT 05/04 A30 RMK A01 T00510041  RH  094%=      5-min Rain = 0
KLA1 140203Z 02016KT 05/04 A30 RMK A01 T00510041  RH  094%=      5-min Rain = 0
KLA1 140204Z 01014KT 05/04 A30 RMK A01 T00500040  RH  093%=      5-min Rain = 0
KLA1 140205Z 03015G20KT 05/04 A2999 RMK A01 T00500040  RH  093%=      5-min Rain = 0
KLA1 140206Z 02016G21KT 05/04 A2999 RMK A01 T00500040  RH  093%=      5-min Rain = 0
KLA1 140207Z 01013G19KT 05/04 A2999 RMK A01 T00500039  RH  093%=      5-min Rain = 0
KLA1 140208Z 01011KT 05/04 A2999 RMK A01 T00500039  RH  093%=      5-min Rain = 0
KLA1 140209Z 01014KT 05/04 A2999 RMK A01 T00500039  RH  092%=      5-min Rain = 0
KLA1 140210Z 34011KT 05/04 A2999 RMK A01 T00500039  RH  092%=      5-min Rain = 0
KLA1 140211Z 34012G17KT 05/04 A2999 RMK A01 T00510039  RH  092%=      5-min Rain = 0
KLA1 140212Z 33009KT 05/04 A30 RMK A01 T00520039  RH  092%=      5-min Rain = 0
KLA1 140213Z 33008KT 05/04 A2999 RMK A01 T00520040  RH  092%=      5-min Rain = 0
KLA1 140214Z 34007KT 05/04 A2999 RMK A01 T00520040  RH  092%=      5-min Rain = 0
KLA1 140215Z 34006KT 05/04 A2999 RMK A01 T00520040  RH  092%=      5-min Rain = 0
KLA1 140216Z 36007KT 05/04 A2999 RMK A01 T00520040  RH  092%=      5-min Rain = 0
KLA1 140217Z 32006KT 05/04 A2999 RMK A01 T00520039  RH  092%=      5-min Rain = 0
KLA1 140218Z 33005KT 05/04 A2999 RMK A01 T00520039  RH  092%=      5-min Rain = 0
KLA1 140219Z 31006KT 05/04 A2999 RMK A01 T00520039  RH  092%=      5-min Rain = 0
KLA1 140220Z 31008KT 05/04 A2999 RMK A01 T00520040  RH  092%=      5-min Rain = 0
KLA1 140221Z 30006KT 05/04 A2999 RMK A01 T00520040  RH  092%=      5-min Rain = 0
KLA1 140222Z 30008G14KT 05/04 A30 RMK A01 T00520041  RH  093%=      5-min Rain = 0
KLA1 140223Z 30009G14KT 05/04 A30 RMK A01 T00520041  RH  093%=      5-min Rain = 0
KLA1 140224Z 30006KT 05/04 A30 RMK A01 T00510041  RH  093%=      5-min Rain = 0
KLA1 140225Z 30008KT 05/04 A30 RMK A01 T00510041  RH  093%=      5-min Rain = 0
KLA1 140226Z 29011KT 05/04 A30 RMK A01 T00510041  RH  093%=      5-min Rain = 0
KLA1 140227Z 29010KT 05/04 A30 RMK A01 T00510042  RH  093%=      5-min Rain = 0
KLA1 140228Z 28009KT 05/04 A3001 RMK A01 T00510041  RH  094%=      5-min Rain = 0
KLA1 140229Z 28009G14KT 05/04 A3001 RMK A01 T00510041  RH  094%=      5-min Rain = 0
KLA1 140230Z 30012KT 05/04 A3001 RMK A01 T00510042  RH  094%=      5-min Rain = 0
KLA1 140231Z 30011KT 05/04 A3001 RMK A01 T00510042  RH  094%=      5-min Rain = 0
KLA1 140232Z 30014KT 05/04 A3002 RMK A01 T00510042  RH  094%=      5-min Rain = 0
KLA1 140233Z 31015KT 05/04 A3002 RMK A01 T00510041  RH  094%=      5-min Rain = 0
KLA1 140234Z 30012KT 05/04 A3002 RMK A01 T00510041  RH  093%=      5-min Rain = 0
KLA1 140235Z 29010KT 05/04 A3002 RMK A01 T00520041  RH  093%=      5-min Rain = 0
KLA1 140236Z 27007KT 05/04 A3003 RMK A01 T00520042  RH  093%=      5-min Rain = 0
KLA1 140237Z 28009KT 05/04 A3003 RMK A01 T00520042  RH  093%=      5-min Rain = 0
KLA1 140238Z 28007KT 05/04 A3003 RMK A01 T00520042  RH  093%=      5-min Rain = 0
KLA1 140239Z 29007KT 05/04 A3003 RMK A01 T00530043  RH  093%=      5-min Rain = 0
KLA1 140240Z 31008KT 05/04 A3002 RMK A01 T00530043  RH  093%=      5-min Rain = 0
KLA1 140241Z 32009KT 05/04 A3002 RMK A01 T00530043  RH  094%=      5-min Rain = 0.01
KLA1 140242Z 32012KT 05/04 A3001 RMK A01 T00530044  RH  094%=      5-min Rain = 0
KLA1 140243Z 31013KT 05/04 A3001 RMK A01 T00530044  RH  094%=      5-min Rain = 0
KLA1 140244Z 31012KT 05/04 A3001 RMK A01 T00530044  RH  094%=      5-min Rain = 0
KLA1 140245Z 31010KT 05/04 A3001 RMK A01 T00530044  RH  094%=      5-min Rain = 0
KLA1 140246Z 29006KT 05/05 A3001 RMK A01 T00530045  RH  094%=      5-min Rain = 0.01
KLA1 140247Z 27005KT 05/05 A3002 RMK A01 T00540045  RH  094%=      5-min Rain = 0
KLA1 140248Z 29005KT 05/05 A3001 RMK A01 T00530045  RH  094%=      5-min Rain = 0
KLA1 140249Z 32005KT 05/05 A3001 RMK A01 T00530045  RH  094%=      5-min Rain = 0
KLA1 140250Z 01006KT 05/05 A30 RMK A01 T00530045  RH  094%=      5-min Rain = 0
KLA1 140251Z 36009KT 05/05 A2999 RMK A01 T00530045  RH  095%=      5-min Rain = 0
KLA1 140252Z 35008KT 05/05 A2999 RMK A01 T00530045  RH  095%=      5-min Rain = 0
KLA1 140253Z 29006KT 05/05 A30 RMK A01 T00530045  RH  095%=      5-min Rain = 0.01
KLA1 140254Z 27004KT 05/05 A3001 RMK A01 T00530045  RH  095%=      5-min Rain = 0
KLA1 140255Z 25005KT 05/05 A3001 RMK A01 T00530045  RH  095%=      5-min Rain = 0
KLA1 140256Z 26004KT 05/05 A3002 RMK A01 T00530045  RH  095%=      5-min Rain = 0
KLA1 140257Z 30004KT 05/05 A3002 RMK A01 T00530046  RH  095%=      5-min Rain = 0
KLA1 140258Z 32005KT 05/05 A3001 RMK A01 T00530046  RH  095%=      5-min Rain = 0
KLA1 140259Z 33008KT 05/05 A30 RMK A01 T00530046  RH  095%=      5-min Rain = 0
KLA1 140300Z 34010KT 05/05 A30 RMK A01 T00530046  RH  095%=      5-min Rain = 0
KLA1 140301Z 33010KT 05/05 A2999 RMK A01 T00530046  RH  095%=      5-min Rain = 0
KLA1 140302Z 32009KT 05/05 A2999 RMK A01 T00530047  RH  096%=      5-min Rain = 0
KLA1 140303Z 34005KT 05/05 A2999 RMK A01 T00530047  RH  096%=      5-min Rain = 0
KLA1 140304Z 03002KT 05/05 A2999 RMK A01 T00530047  RH  096%=      5-min Rain = 0
KLA1 140305Z 03004KT 05/05 A30 RMK A01 T00530046  RH  096%=      5-min Rain = 0
KLA1 140306Z 04004KT 05/05 A30 RMK A01 T00530046  RH  095%=      5-min Rain = 0
KLA1 140307Z 03003KT 05/05 A30 RMK A01 T00530045  RH  095%=      5-min Rain = 0
KLA1 140308Z 01001KT 05/04 A30 RMK A01 T00530044  RH  094%=      5-min Rain = 0.01
KLA1 140309Z 31002KT 05/04 A30 RMK A01 T00530044  RH  094%=      5-min Rain = 0
KLA1 140310Z 31004KT 05/04 A30 RMK A01 T00530044  RH  094%=      5-min Rain = 0
KLA1 140311Z 34006KT 05/04 A30 RMK A01 T00530044  RH  094%=      5-min Rain = 0
KLA1 140312Z 31008KT 05/04 A30 RMK A01 T00540044  RH  094%=      5-min Rain = 0
KLA1 140313Z 31009KT 05/05 A30 RMK A01 T00540045  RH  094%=      5-min Rain = 0
KLA1 140314Z 30010KT 05/05 A3001 RMK A01 T00540045  RH  094%=      5-min Rain = 0
KLA1 140315Z 31009KT 05/05 A3001 RMK A01 T00540045  RH  094%=      5-min Rain = 0
KLA1 140316Z 31007KT 05/05 A3001 RMK A01 T00540045  RH  094%=      5-min Rain = 0
KLA1 140317Z 31006KT 05/05 A3001 RMK A01 T00540046  RH  094%=      5-min Rain = 0
KLA1 140318Z 32005G10KT 05/05 A3002 RMK A01 T00540046  RH  095%=      5-min Rain = 0
KLA1 140319Z 30007KT 05/05 A3002 RMK A01 T00540046  RH  095%=      5-min Rain = 0
KLA1 140320Z 31008KT 05/05 A3003 RMK A01 T00540045  RH  094%=      5-min Rain = 0
KLA1 140321Z 30008G13KT 05/05 A3003 RMK A01 T00540045  RH  094%=      5-min Rain = 0
KLA1 140322Z 30005KT 05/05 A3003 RMK A01 T00540045  RH  094%=      5-min Rain = 0
KLA1 140323Z 30007KT 05/05 A3003 RMK A01 T00540045  RH  094%=      5-min Rain = 0
KLA1 140324Z 30008KT 05/05 A3003 RMK A01 T00540046  RH  095%=      5-min Rain = 0.01
KLA1 140325Z 30009KT 05/05 A3003 RMK A01 T00540046  RH  095%=      5-min Rain = 0
KLA1 140326Z 30010KT 05/05 A3003 RMK A01 T00540047  RH  095%=      5-min Rain = 0
KLA1 140327Z 30008KT 05/05 A3003 RMK A01 T00540046  RH  095%=      5-min Rain = 0
KLA1 140328Z 32010KT 05/05 A3002 RMK A01 T00530045  RH  095%=      5-min Rain = 0
KLA1 140329Z 33008KT 05/05 A3002 RMK A01 T00530045  RH  095%=      5-min Rain = 0
KLA1 140330Z 34007KT 05/05 A3002 RMK A01 T00530045  RH  095%=      5-min Rain = 0.01
KLA1 140331Z 33008KT 05/04 A3002 RMK A01 T00520044  RH  095%=      5-min Rain = 0.01
KLA1 140332Z 34007KT 05/04 A3002 RMK A01 T00520044  RH  095%=      5-min Rain = 0.02
KLA1 140333Z 36008KT 05/04 A3002 RMK A01 T00520044  RH  094%=      5-min Rain = 0
KLA1 140334Z 36009KT 05/04 A3001 RMK A01 T00520043  RH  094%=      5-min Rain = 0.01
KLA1 140335Z 36007KT 05/04 A3002 RMK A01 T00510043  RH  094%=      5-min Rain = 0.02
KLA1 140336Z 35006KT 05/04 A3001 RMK A01 T00510043  RH  094%=      5-min Rain = 0.01
KLA1 140337Z 34008KT 05/04 A3001 RMK A01 T00510043  RH  094%=      5-min Rain = 0.02
KLA1 140338Z 33008KT 05/04 A3001 RMK A01 T00510043  RH  095%=      5-min Rain = 0
KLA1 140339Z 33009KT 05/04 A30 RMK A01 T00510043  RH  095%=      5-min Rain = 0
KLA1 140340Z 32009KT 05/04 A30 RMK A01 T00510043  RH  095%=      5-min Rain = 0
KLA1 140341Z 32010KT 05/04 A30 RMK A01 T00500043  RH  095%=      5-min Rain = 0.01
KLA1 140342Z 33011KT 05/04 A30 RMK A01 T00510043  RH  095%=      5-min Rain = 0
KLA1 140343Z 33006KT 05/04 A30 RMK A01 T00500043  RH  095%=      5-min Rain = 0
KLA1 140344Z 32009KT 05/04 A30 RMK A01 T00500043  RH  095%=      5-min Rain = 0
KLA1 140345Z 32010KT 05/04 A3001 RMK A01 T00500043  RH  095%=      5-min Rain = 0
KLA1 140346Z 32004KT 05/04 A3002 RMK A01 T00500043  RH  095%=      5-min Rain = 0
KLA1 140347Z 04000KT 05/04 A3002 RMK A01 T00500043  RH  095%=      5-min Rain = 0
KLA1 140348Z 05001KT 05/04 A3002 RMK A01 T00500044  RH  095%=      5-min Rain = 0
KLA1 140349Z 01003KT 05/04 A3001 RMK A01 T00500044  RH  095%=      5-min Rain = 0.01
KLA1 140350Z 01006KT 05/04 A3001 RMK A01 T00500043  RH  095%=      5-min Rain = 0
KLA1 140351Z 35005KT 05/04 A3001 RMK A01 T00500042  RH  095%=      5-min Rain = 0
KLA1 140352Z 34004KT 05/04 A3001 RMK A01 T00500042  RH  095%=      5-min Rain = 0.01
KLA1 140353Z 32006KT 05/04 A3001 RMK A01 T00500042  RH  095%=      5-min Rain = 0
KLA1 140354Z 33007KT 05/04 A3001 RMK A01 T00500043  RH  095%=      5-min Rain = 0.01
KLA1 140355Z 32010KT 05/04 A3001 RMK A01 T00500043  RH  095%=      5-min Rain = 0.01
KLA1 140356Z 32011KT 05/04 A3001 RMK A01 T00500043  RH  095%=      5-min Rain = 0
KLA1 140357Z 32011KT 05/04 A30 RMK A01 T00510043  RH  095%=      5-min Rain = 0.01
KLA1 140358Z 32013KT 05/04 A30 RMK A01 T00510044  RH  095%=      5-min Rain = 0
KLA1 140359Z 31011KT 05/04 A30 RMK A01 T00510044  RH  095%=      5-min Rain = 0.02
KLA1 140400Z 31010KT 05/04 A3001 RMK A01 T00510044  RH  095%=      5-min Rain = 0.01
KLA1 140401Z 30008KT 05/04 A3002 RMK A01 T00510044  RH  095%=      5-min Rain = 0.02
KLA1 140402Z 29006KT 05/04 A3003 RMK A01 T00510044  RH  096%=      5-min Rain = 0.01
KLA1 140403Z 29006KT 05/04 A3003 RMK A01 T00510044  RH  096%=      5-min Rain = 0.01
KLA1 140404Z 30006KT 05/05 A3003 RMK A01 T00510045  RH  096%=      5-min Rain = 0.02
KLA1 140405Z 32006KT 05/04 A3002 RMK A01 T00510044  RH  096%=      5-min Rain = 0.02
KLA1 140406Z 31007KT 05/05 A3002 RMK A01 T00510045  RH  096%=      5-min Rain = 0.05
KLA1 140407Z 33002KT 05/04 A3002 RMK A01 T00500044  RH  096%=      5-min Rain = 0.02
KLA1 140408Z 35003KT 05/04 A3002 RMK A01 T00500044  RH  096%=      5-min Rain = 0.03
KLA1 140409Z 32005KT 05/04 A3001 RMK A01 T00490043  RH  096%=      5-min Rain = 0.01
KLA1 140410Z 34004KT 05/04 A3001 RMK A01 T00500044  RH  096%=      5-min Rain = 0.01
KLA1 140411Z 01005KT 05/04 A30 RMK A01 T00490044  RH  096%=      5-min Rain = 0.02
KLA1 140412Z 00006KT 05/04 A30 RMK A01 T00490043  RH  096%=      5-min Rain = 0.02
KLA1 140413Z 01007KT 05/04 A30 RMK A01 T00490043  RH  096%=      5-min Rain = 0.01
KLA1 140414Z 33006KT 05/04 A30 RMK A01 T00490043  RH  096%=      5-min Rain = 0.02
KLA1 140415Z 31008KT 05/04 A30 RMK A01 T00490043  RH  096%=      5-min Rain = 0
KLA1 140416Z 31009KT 05/04 A30 RMK A01 T00490043  RH  096%=      5-min Rain = 0.01
KLA1 140417Z 30009KT 05/04 A3001 RMK A01 T00490043  RH  096%=      5-min Rain = 0.01
KLA1 140418Z 31012KT 05/04 A3002 RMK A01 T00480043  RH  096%=      5-min Rain = 0.01
KLA1 140419Z 30011KT 05/04 A3002 RMK A01 T00490043  RH  096%=      5-min Rain = 0
KLA1 140420Z 30010KT 05/04 A3001 RMK A01 T00490043  RH  096%=      5-min Rain = 0.01
KLA1 140421Z 32010KT 05/04 A30 RMK A01 T00490043  RH  096%=      5-min Rain = 0.01
KLA1 140422Z 35008KT 05/04 A2999 RMK A01 T00490043  RH  096%=      5-min Rain = 0.01
KLA1 140423Z 36012G18KT 05/04 A2999 RMK A01 T00480042  RH  096%=      5-min Rain = 0.01
KLA1 140424Z 35009KT 05/04 A30 RMK A01 T00480042  RH  096%=      5-min Rain = 0
KLA1 140425Z 33004G9KT 05/04 A3001 RMK A01 T00480042  RH  096%=      5-min Rain = 0.01
KLA1 140426Z 32007G13KT 05/04 A3002 RMK A01 T00480042  RH  096%=      5-min Rain = 0
KLA1 140427Z 31008KT 05/04 A3003 RMK A01 T00480042  RH  096%=      5-min Rain = 0
KLA1 140428Z 30006KT 05/04 A3003 RMK A01 T00480042  RH  096%=      5-min Rain = 0.01
KLA1 140429Z 29007KT 05/04 A3003 RMK A01 T00480042  RH  096%=      5-min Rain = 0
KLA1 140430Z 30005KT 05/04 A3003 RMK A01 T00490043  RH  096%=      5-min Rain = 0.01
KLA1 140431Z 31008KT 05/04 A3002 RMK A01 T00490043  RH  096%=      5-min Rain = 0.01
KLA1 140432Z 33007KT 05/04 A3002 RMK A01 T00490043  RH  096%=      5-min Rain = 0
KLA1 140433Z 33008KT 05/04 A3002 RMK A01 T00480043  RH  096%=      5-min Rain = 0.01
KLA1 140434Z 32009KT 05/04 A3001 RMK A01 T00490043  RH  096%=      5-min Rain = 0.01
KLA1 140435Z 33006KT 05/04 A3001 RMK A01 T00480043  RH  096%=      5-min Rain = 0
KLA1 140436Z 34007KT 05/04 A30 RMK A01 T00480043  RH  096%=      5-min Rain = 0.02
KLA1 140437Z 35009KT 05/04 A30 RMK A01 T00480043  RH  096%=      5-min Rain = 0.01
KLA1 140438Z 35010KT 05/04 A2999 RMK A01 T00480043  RH  096%=      5-min Rain = 0.01
KLA1 140439Z 36010KT 05/04 A2999 RMK A01 T00480042  RH  096%=      5-min Rain = 0.01
KLA1 140440Z 34007KT 05/04 A2999 RMK A01 T00480042  RH  096%=      5-min Rain = 0.01
KLA1 140441Z 33008KT 05/04 A30 RMK A01 T00480042  RH  096%=      5-min Rain = 0
KLA1 140442Z 32008KT 05/04 A3001 RMK A01 T00480043  RH  096%=      5-min Rain = 0.01
KLA1 140443Z 31006KT 05/04 A3001 RMK A01 T00480042  RH  096%=      5-min Rain = 0
KLA1 140444Z 30009KT 05/04 A3002 RMK A01 T00480043  RH  096%=      5-min Rain = 0
KLA1 140445Z 31011KT 05/04 A3002 RMK A01 T00480043  RH  096%=      5-min Rain = 0.01
KLA1 140446Z 31007KT 05/04 A3002 RMK A01 T00480042  RH  096%=      5-min Rain = 0
KLA1 140447Z 30004KT 05/04 A3003 RMK A01 T00480043  RH  096%=      5-min Rain = 0
KLA1 140448Z 31005KT 05/04 A3003 RMK A01 T00490043  RH  096%=      5-min Rain = 0.01
KLA1 140449Z 31006KT 05/04 A3003 RMK A01 T00490044  RH  096%=      5-min Rain = 0
KLA1 140450Z 31006KT 05/04 A3003 RMK A01 T00490044  RH  096%=      5-min Rain = 0
KLA1 140451Z 30004KT 05/04 A3003 RMK A01 T00490044  RH  096%=      5-min Rain = 0
KLA1 140452Z 30005KT 05/04 A3003 RMK A01 T00490044  RH  096%=      5-min Rain = 0
KLA1 140453Z 30005KT 05/04 A3003 RMK A01 T00490044  RH  097%=      5-min Rain = 0.01
KLA1 140454Z 32005KT 05/04 A3003 RMK A01 T00490044  RH  097%=      5-min Rain = 0
KLA1 140455Z 31005KT 05/04 A3002 RMK A01 T00490044  RH  097%=      5-min Rain = 0.01
KLA1 140456Z 33004KT 05/04 A3002 RMK A01 T00490044  RH  097%=      5-min Rain = 0
KLA1 140457Z 01003KT 05/04 A3001 RMK A01 T00490044  RH  097%=      5-min Rain = 0.01
KLA1 140458Z 00006KT 05/04 A3001 RMK A01 T00490044  RH  097%=      5-min Rain = 0.01
KLA1 140459Z 34006KT 05/04 A30 RMK A01 T00490044  RH  097%=      5-min Rain = 0.01
KLA1 140500Z 33005KT 05/04 A30 RMK A01 T00490044  RH  097%=      5-min Rain = 0
KLA1 140501Z 35003KT 05/04 A30 RMK A01 T00490044  RH  097%=      5-min Rain = 0.01
KLA1 140502Z 36004KT 05/04 A2999 RMK A01 T00490044  RH  097%=      5-min Rain = 0.01
KLA1 140503Z 01006KT 05/04 A2999 RMK A01 T00480044  RH  097%=      5-min Rain = 0
KLA1 140504Z 36005KT 05/04 A2998 RMK A01 T00490044  RH  097%=      5-min Rain = 0.01
KLA1 140505Z 00006KT 05/04 A2998 RMK A01 T00490044  RH  097%=      5-min Rain = 0
KLA1 140506Z 01004KT 05/04 A2999 RMK A01 T00480043  RH  097%=      5-min Rain = 0.01
KLA1 140507Z 03001KT 05/04 A2999 RMK A01 T00490043  RH  097%=      5-min Rain = 0
KLA1 140508Z 01003KT 05/04 A2999 RMK A01 T00480043  RH  096%=      5-min Rain = 0.01
KLA1 140509Z 02002KT 05/04 A30 RMK A01 T00480043  RH  096%=      5-min Rain = 0
KLA1 140510Z 07002KT 05/04 A30 RMK A01 T00490043  RH  096%=      5-min Rain = 0
KLA1 140511Z 05000KT 05/04 A30 RMK A01 T00490043  RH  096%=      5-min Rain = 0
KLA1 140512Z 14000KT 05/04 A30 RMK A01 T00490043  RH  096%=      5-min Rain = 0.01
KLA1 140513Z 00000KT 05/04 A30 RMK A01 T00490044  RH  096%=      5-min Rain = 0.01
KLA1 140514Z 34001KT 05/04 A30 RMK A01 T00490044  RH  096%=      5-min Rain = 0
KLA1 140515Z 29002KT 05/04 A2999 RMK A01 T00500044  RH  096%=      5-min Rain = 0.01
KLA1 140516Z 31004KT 05/04 A2999 RMK A01 T00500044  RH  096%=      5-min Rain = 0
KLA1 140517Z 32005KT 05/04 A2999 RMK A01 T00490043  RH  096%=      5-min Rain = 0
KLA1 140518Z 34005KT 05/04 A2999 RMK A01 T00490043  RH  096%=      5-min Rain = 0.01
KLA1 140519Z 34005KT 05/04 A2999 RMK A01 T00490043  RH  096%=      5-min Rain = 0.01
KLA1 140520Z 33007KT 05/04 A2999 RMK A01 T00490043  RH  096%=      5-min Rain = 0
KLA1 140521Z 31008KT 05/04 A30 RMK A01 T00490042  RH  096%=      5-min Rain = 0.01
KLA1 140522Z 31008KT 05/04 A30 RMK A01 T00490042  RH  095%=      5-min Rain = 0
KLA1 140523Z 31007KT 05/04 A3001 RMK A01 T00490042  RH  095%=      5-min Rain = 0
KLA1 140524Z 31006KT 05/04 A3001 RMK A01 T00490042  RH  095%=      5-min Rain = 0.01
KLA1 140525Z 31007KT 05/04 A3002 RMK A01 T00490042  RH  095%=      5-min Rain = 0
KLA1 140526Z 29008KT 05/04 A3002 RMK A01 T00500043  RH  096%=      5-min Rain = 0.01
KLA1 140527Z 29009KT 05/04 A3002 RMK A01 T00500044  RH  096%=      5-min Rain = 0
KLA1 140528Z 30008KT 05/04 A3003 RMK A01 T00500044  RH  096%=      5-min Rain = 0.01
KLA1 140529Z 30007KT 05/04 A3003 RMK A01 T00500044  RH  096%=      5-min Rain = 0.01
KLA1 140530Z 30007KT 05/05 A3003 RMK A01 T00500045  RH  096%=      5-min Rain = 0
KLA1 140531Z 30008KT 05/05 A3003 RMK A01 T00500045  RH  097%=      5-min Rain = 0.01
KLA1 140532Z 29010KT 05/05 A3003 RMK A01 T00500045  RH  097%=      5-min Rain = 0
KLA1 140533Z 29008KT 05/05 A3003 RMK A01 T00500045  RH  097%=      5-min Rain = 0.01
KLA1 140534Z 28007KT 05/05 A3003 RMK A01 T00500045  RH  097%=      5-min Rain = 0
KLA1 140535Z 29007KT 05/05 A3003 RMK A01 T00500046  RH  097%=      5-min Rain = 0.01
KLA1 140536Z 29008KT 05/05 A3003 RMK A01 T00500046  RH  097%=      5-min Rain = 0
KLA1 140537Z 29008KT 05/05 A3002 RMK A01 T00500046  RH  097%=      5-min Rain = 0.01
KLA1 140538Z 31007KT 05/05 A3002 RMK A01 T00500046  RH  097%=      5-min Rain = 0
KLA1 140539Z 31006KT 05/05 A3002 RMK A01 T00500047  RH  097%=      5-min Rain = 0
KLA1 140540Z 31009KT 05/05 A3001 RMK A01 T00510047  RH  097%=      5-min Rain = 0
KLA1 140541Z 33007KT 05/05 A30 RMK A01 T00510047  RH  097%=      5-min Rain = 0.01
KLA1 140542Z 34006KT 05/05 A30 RMK A01 T00500046  RH  097%=      5-min Rain = 0
KLA1 140543Z 32005KT 05/05 A30 RMK A01 T00500046  RH  097%=      5-min Rain = 0.01
KLA1 140544Z 32006KT 05/05 A30 RMK A01 T00500046  RH  097%=      5-min Rain = 0
KLA1 140545Z 33008KT 05/05 A30 RMK A01 T00500046  RH  097%=      5-min Rain = 0
KLA1 140546Z 32008KT 05/05 A30 RMK A01 T00500046  RH  097%=      5-min Rain = 0
KLA1 140547Z 33007KT 05/05 A30 RMK A01 T00500046  RH  097%=      5-min Rain = 0.01
KLA1 140548Z 32008KT 05/05 A30 RMK A01 T00490046  RH  097%=      5-min Rain = 0
KLA1 140549Z 31007KT 05/05 A3001 RMK A01 T00500046  RH  097%=      5-min Rain = 0
KLA1 140550Z 32006KT 05/05 A3001 RMK A01 T00490045  RH  097%=      5-min Rain = 0
KLA1 140551Z 31007KT 05/05 A3001 RMK A01 T00490045  RH  097%=      5-min Rain = 0
KLA1 140552Z 31005KT 05/05 A3002 RMK A01 T00490045  RH  097%=      5-min Rain = 0
KLA1 140553Z 32005KT 05/05 A3002 RMK A01 T00500046  RH  097%=      5-min Rain = 0.01
KLA1 140554Z 32004KT 05/05 A3002 RMK A01 T00500046  RH  097%=      5-min Rain = 0
KLA1 140555Z 31005KT 05/05 A3002 RMK A01 T00500046  RH  097%=      5-min Rain = 0
KLA1 140556Z 31006KT 05/05 A3002 RMK A01 T00500046  RH  097%=      5-min Rain = 0
KLA1 140557Z 31006KT 05/05 A3002 RMK A01 T00500046  RH  097%=      5-min Rain = 0
KLA1 140558Z 31006KT 05/05 A3002 RMK A01 T00500046  RH  097%=      5-min Rain = 0
KLA1 140559Z 31006KT 05/05 A3002 RMK A01 T00500046  RH  097%=      5-min Rain = 0

Page generated in 0.093 seconds.